<?xml version="1.0" encoding="UTF-8" standalone="no" ?>
<gpx xmlns="http://www.topografix.com/GPX/1/1" xmlns:xsi="http://www.w3.org/2001/XMLSchema-instance" xsi:schemaLocation="http://www.topografix.com/GPX/1/1 http://www.topografix.com/GPX/1/1/gpx.xsd" version="1.1" creator="VisuGPX - https://www.visugpx.com">
  <metadata>
    <name>Prat-de-Bouc Le Ché</name>
    <desc><![CDATA[Boucle Prat-de-Bouc Le Ché (neige, sans raquettes)]]></desc>
  </metadata>
  <trk>
    <name><![CDATA[30-DEC-14 15:07:59]]></name>
    <trkseg>
      <trkpt lat="45.05231" lon="2.79367">
        <ele>1395.49</ele>
        <time>2014-12-30T09:21:17Z</time>
      </trkpt>
      <trkpt lat="45.05232" lon="2.79368">
        <ele>1393.09</ele>
        <time>2014-12-30T09:21:23Z</time>
      </trkpt>
      <trkpt lat="45.05232" lon="2.79366">
        <ele>1392.13</ele>
        <time>2014-12-30T09:21:43Z</time>
      </trkpt>
      <trkpt lat="45.05231" lon="2.79365">
        <ele>1392.13</ele>
        <time>2014-12-30T09:22:12Z</time>
      </trkpt>
      <trkpt lat="45.05232" lon="2.79365">
        <ele>1392.13</ele>
        <time>2014-12-30T09:22:18Z</time>
      </trkpt>
      <trkpt lat="45.05232" lon="2.79371">
        <ele>1392.13</ele>
        <time>2014-12-30T09:22:37Z</time>
      </trkpt>
      <trkpt lat="45.05232" lon="2.7937">
        <ele>1392.13</ele>
        <time>2014-12-30T09:23:08Z</time>
      </trkpt>
      <trkpt lat="45.05232" lon="2.7937">
        <ele>1391.17</ele>
        <time>2014-12-30T09:23:50Z</time>
      </trkpt>
      <trkpt lat="45.05232" lon="2.79371">
        <ele>1391.17</ele>
        <time>2014-12-30T09:24:28Z</time>
      </trkpt>
      <trkpt lat="45.05231" lon="2.79371">
        <ele>1390.68</ele>
        <time>2014-12-30T09:25:00Z</time>
      </trkpt>
      <trkpt lat="45.05232" lon="2.7937">
        <ele>1390.68</ele>
        <time>2014-12-30T09:25:32Z</time>
      </trkpt>
      <trkpt lat="45.05232" lon="2.79368">
        <ele>1391.17</ele>
        <time>2014-12-30T09:26:06Z</time>
      </trkpt>
      <trkpt lat="45.05245" lon="2.79361">
        <ele>1390.68</ele>
        <time>2014-12-30T09:26:24Z</time>
      </trkpt>
      <trkpt lat="45.05254" lon="2.79353">
        <ele>1389.72</ele>
        <time>2014-12-30T09:26:37Z</time>
      </trkpt>
      <trkpt lat="45.05264" lon="2.79359">
        <ele>1389.72</ele>
        <time>2014-12-30T09:26:49Z</time>
      </trkpt>
      <trkpt lat="45.05269" lon="2.79357">
        <ele>1389.24</ele>
        <time>2014-12-30T09:26:55Z</time>
      </trkpt>
      <trkpt lat="45.05273" lon="2.79359">
        <ele>1389.24</ele>
        <time>2014-12-30T09:26:59Z</time>
      </trkpt>
      <trkpt lat="45.05289" lon="2.7938">
        <ele>1388.76</ele>
        <time>2014-12-30T09:27:21Z</time>
      </trkpt>
      <trkpt lat="45.05291" lon="2.79379">
        <ele>1388.28</ele>
        <time>2014-12-30T09:27:41Z</time>
      </trkpt>
      <trkpt lat="45.053" lon="2.79375">
        <ele>1387.32</ele>
        <time>2014-12-30T09:27:50Z</time>
      </trkpt>
      <trkpt lat="45.05312" lon="2.7937">
        <ele>1385.4</ele>
        <time>2014-12-30T09:28:04Z</time>
      </trkpt>
      <trkpt lat="45.05335" lon="2.79393">
        <ele>1382.99</ele>
        <time>2014-12-30T09:28:27Z</time>
      </trkpt>
      <trkpt lat="45.05337" lon="2.79395">
        <ele>1382.99</ele>
        <time>2014-12-30T09:28:29Z</time>
      </trkpt>
      <trkpt lat="45.05348" lon="2.79411">
        <ele>1382.03</ele>
        <time>2014-12-30T09:28:43Z</time>
      </trkpt>
      <trkpt lat="45.05351" lon="2.79419">
        <ele>1381.55</ele>
        <time>2014-12-30T09:28:49Z</time>
      </trkpt>
      <trkpt lat="45.05354" lon="2.7945">
        <ele>1382.99</ele>
        <time>2014-12-30T09:29:10Z</time>
      </trkpt>
      <trkpt lat="45.05358" lon="2.7947">
        <ele>1384.44</ele>
        <time>2014-12-30T09:29:24Z</time>
      </trkpt>
      <trkpt lat="45.05362" lon="2.79479">
        <ele>1383.96</ele>
        <time>2014-12-30T09:29:31Z</time>
      </trkpt>
      <trkpt lat="45.05364" lon="2.79484">
        <ele>1383.96</ele>
        <time>2014-12-30T09:29:34Z</time>
      </trkpt>
      <trkpt lat="45.05382" lon="2.79493">
        <ele>1384.92</ele>
        <time>2014-12-30T09:29:55Z</time>
      </trkpt>
      <trkpt lat="45.05385" lon="2.79494">
        <ele>1384.92</ele>
        <time>2014-12-30T09:29:58Z</time>
      </trkpt>
      <trkpt lat="45.05394" lon="2.79494">
        <ele>1385.88</ele>
        <time>2014-12-30T09:30:08Z</time>
      </trkpt>
      <trkpt lat="45.05413" lon="2.79488">
        <ele>1389.24</ele>
        <time>2014-12-30T09:30:29Z</time>
      </trkpt>
      <trkpt lat="45.05426" lon="2.79489">
        <ele>1389.24</ele>
        <time>2014-12-30T09:30:45Z</time>
      </trkpt>
      <trkpt lat="45.05438" lon="2.79494">
        <ele>1389.72</ele>
        <time>2014-12-30T09:31:03Z</time>
      </trkpt>
      <trkpt lat="45.05452" lon="2.79513">
        <ele>1388.76</ele>
        <time>2014-12-30T09:31:23Z</time>
      </trkpt>
      <trkpt lat="45.05458" lon="2.79525">
        <ele>1388.76</ele>
        <time>2014-12-30T09:31:31Z</time>
      </trkpt>
      <trkpt lat="45.05474" lon="2.79557">
        <ele>1385.88</ele>
        <time>2014-12-30T09:31:53Z</time>
      </trkpt>
      <trkpt lat="45.05483" lon="2.79583">
        <ele>1384.92</ele>
        <time>2014-12-30T09:32:13Z</time>
      </trkpt>
      <trkpt lat="45.05493" lon="2.79617">
        <ele>1383.47</ele>
        <time>2014-12-30T09:32:35Z</time>
      </trkpt>
      <trkpt lat="45.05496" lon="2.79628">
        <ele>1383.47</ele>
        <time>2014-12-30T09:32:42Z</time>
      </trkpt>
      <trkpt lat="45.05501" lon="2.79652">
        <ele>1383.96</ele>
        <time>2014-12-30T09:33:00Z</time>
      </trkpt>
      <trkpt lat="45.05504" lon="2.7968">
        <ele>1385.4</ele>
        <time>2014-12-30T09:33:21Z</time>
      </trkpt>
      <trkpt lat="45.05505" lon="2.79711">
        <ele>1388.28</ele>
        <time>2014-12-30T09:33:47Z</time>
      </trkpt>
      <trkpt lat="45.05505" lon="2.79736">
        <ele>1389.72</ele>
        <time>2014-12-30T09:34:08Z</time>
      </trkpt>
      <trkpt lat="45.05511" lon="2.79763">
        <ele>1390.2</ele>
        <time>2014-12-30T09:34:29Z</time>
      </trkpt>
      <trkpt lat="45.05525" lon="2.79789">
        <ele>1386.84</ele>
        <time>2014-12-30T09:34:49Z</time>
      </trkpt>
      <trkpt lat="45.0553" lon="2.79796">
        <ele>1385.4</ele>
        <time>2014-12-30T09:34:55Z</time>
      </trkpt>
      <trkpt lat="45.05542" lon="2.79817">
        <ele>1384.44</ele>
        <time>2014-12-30T09:35:10Z</time>
      </trkpt>
      <trkpt lat="45.05567" lon="2.79841">
        <ele>1382.99</ele>
        <time>2014-12-30T09:35:35Z</time>
      </trkpt>
      <trkpt lat="45.0557" lon="2.79844">
        <ele>1382.99</ele>
        <time>2014-12-30T09:35:39Z</time>
      </trkpt>
      <trkpt lat="45.05573" lon="2.79847">
        <ele>1382.03</ele>
        <time>2014-12-30T09:35:42Z</time>
      </trkpt>
      <trkpt lat="45.05578" lon="2.79851">
        <ele>1382.03</ele>
        <time>2014-12-30T09:35:47Z</time>
      </trkpt>
      <trkpt lat="45.05597" lon="2.79869">
        <ele>1381.55</ele>
        <time>2014-12-30T09:36:08Z</time>
      </trkpt>
      <trkpt lat="45.05612" lon="2.79887">
        <ele>1382.51</ele>
        <time>2014-12-30T09:36:25Z</time>
      </trkpt>
      <trkpt lat="45.05621" lon="2.79896">
        <ele>1381.55</ele>
        <time>2014-12-30T09:36:36Z</time>
      </trkpt>
      <trkpt lat="45.05634" lon="2.79916">
        <ele>1381.07</ele>
        <time>2014-12-30T09:36:52Z</time>
      </trkpt>
      <trkpt lat="45.05652" lon="2.79933">
        <ele>1380.59</ele>
        <time>2014-12-30T09:37:13Z</time>
      </trkpt>
      <trkpt lat="45.05654" lon="2.79934">
        <ele>1381.07</ele>
        <time>2014-12-30T09:37:15Z</time>
      </trkpt>
      <trkpt lat="45.05657" lon="2.79938">
        <ele>1381.55</ele>
        <time>2014-12-30T09:37:18Z</time>
      </trkpt>
      <trkpt lat="45.05673" lon="2.79958">
        <ele>1381.55</ele>
        <time>2014-12-30T09:37:40Z</time>
      </trkpt>
      <trkpt lat="45.05678" lon="2.79966">
        <ele>1382.51</ele>
        <time>2014-12-30T09:37:48Z</time>
      </trkpt>
      <trkpt lat="45.0568" lon="2.7997">
        <ele>1382.51</ele>
        <time>2014-12-30T09:37:51Z</time>
      </trkpt>
      <trkpt lat="45.05689" lon="2.79984">
        <ele>1382.99</ele>
        <time>2014-12-30T09:38:04Z</time>
      </trkpt>
      <trkpt lat="45.057" lon="2.79997">
        <ele>1383.96</ele>
        <time>2014-12-30T09:38:18Z</time>
      </trkpt>
      <trkpt lat="45.05706" lon="2.80004">
        <ele>1383.96</ele>
        <time>2014-12-30T09:38:27Z</time>
      </trkpt>
      <trkpt lat="45.05722" lon="2.80034">
        <ele>1383.96</ele>
        <time>2014-12-30T09:38:49Z</time>
      </trkpt>
      <trkpt lat="45.05732" lon="2.80059">
        <ele>1385.4</ele>
        <time>2014-12-30T09:39:10Z</time>
      </trkpt>
      <trkpt lat="45.05735" lon="2.80093">
        <ele>1386.36</ele>
        <time>2014-12-30T09:39:32Z</time>
      </trkpt>
      <trkpt lat="45.05738" lon="2.80106">
        <ele>1386.36</ele>
        <time>2014-12-30T09:39:41Z</time>
      </trkpt>
      <trkpt lat="45.05738" lon="2.80111">
        <ele>1386.36</ele>
        <time>2014-12-30T09:39:44Z</time>
      </trkpt>
      <trkpt lat="45.05739" lon="2.80133">
        <ele>1386.36</ele>
        <time>2014-12-30T09:40:04Z</time>
      </trkpt>
      <trkpt lat="45.05741" lon="2.80135">
        <ele>1385.88</ele>
        <time>2014-12-30T09:40:11Z</time>
      </trkpt>
      <trkpt lat="45.05744" lon="2.80136">
        <ele>1386.36</ele>
        <time>2014-12-30T09:40:28Z</time>
      </trkpt>
      <trkpt lat="45.05744" lon="2.80137">
        <ele>1385.88</ele>
        <time>2014-12-30T09:40:51Z</time>
      </trkpt>
      <trkpt lat="45.05744" lon="2.80136">
        <ele>1386.84</ele>
        <time>2014-12-30T09:41:16Z</time>
      </trkpt>
      <trkpt lat="45.05743" lon="2.80143">
        <ele>1385.88</ele>
        <time>2014-12-30T09:41:36Z</time>
      </trkpt>
      <trkpt lat="45.05743" lon="2.80146">
        <ele>1385.88</ele>
        <time>2014-12-30T09:41:38Z</time>
      </trkpt>
      <trkpt lat="45.05743" lon="2.80155">
        <ele>1385.88</ele>
        <time>2014-12-30T09:41:53Z</time>
      </trkpt>
      <trkpt lat="45.05744" lon="2.80155">
        <ele>1385.4</ele>
        <time>2014-12-30T09:42:32Z</time>
      </trkpt>
      <trkpt lat="45.05746" lon="2.80159">
        <ele>1384.44</ele>
        <time>2014-12-30T09:42:36Z</time>
      </trkpt>
      <trkpt lat="45.05748" lon="2.80165">
        <ele>1383.96</ele>
        <time>2014-12-30T09:42:41Z</time>
      </trkpt>
      <trkpt lat="45.05751" lon="2.80185">
        <ele>1381.55</ele>
        <time>2014-12-30T09:42:54Z</time>
      </trkpt>
      <trkpt lat="45.0575" lon="2.80215">
        <ele>1378.67</ele>
        <time>2014-12-30T09:43:15Z</time>
      </trkpt>
      <trkpt lat="45.0575" lon="2.80218">
        <ele>1378.19</ele>
        <time>2014-12-30T09:43:17Z</time>
      </trkpt>
      <trkpt lat="45.05746" lon="2.80242">
        <ele>1375.3</ele>
        <time>2014-12-30T09:43:33Z</time>
      </trkpt>
      <trkpt lat="45.05751" lon="2.80263">
        <ele>1371.94</ele>
        <time>2014-12-30T09:43:47Z</time>
      </trkpt>
      <trkpt lat="45.05756" lon="2.80271">
        <ele>1370.5</ele>
        <time>2014-12-30T09:43:55Z</time>
      </trkpt>
      <trkpt lat="45.0577" lon="2.80273">
        <ele>1370.02</ele>
        <time>2014-12-30T09:44:06Z</time>
      </trkpt>
      <trkpt lat="45.05782" lon="2.80272">
        <ele>1370.02</ele>
        <time>2014-12-30T09:44:15Z</time>
      </trkpt>
      <trkpt lat="45.058" lon="2.8026">
        <ele>1367.13</ele>
        <time>2014-12-30T09:44:33Z</time>
      </trkpt>
      <trkpt lat="45.05805" lon="2.80258">
        <ele>1366.17</ele>
        <time>2014-12-30T09:44:55Z</time>
      </trkpt>
      <trkpt lat="45.0581" lon="2.80252">
        <ele>1365.21</ele>
        <time>2014-12-30T09:45:19Z</time>
      </trkpt>
      <trkpt lat="45.05813" lon="2.8025">
        <ele>1364.73</ele>
        <time>2014-12-30T09:45:23Z</time>
      </trkpt>
      <trkpt lat="45.05814" lon="2.80249">
        <ele>1364.25</ele>
        <time>2014-12-30T09:45:25Z</time>
      </trkpt>
      <trkpt lat="45.05818" lon="2.80246">
        <ele>1363.29</ele>
        <time>2014-12-30T09:45:30Z</time>
      </trkpt>
      <trkpt lat="45.05824" lon="2.80247">
        <ele>1361.84</ele>
        <time>2014-12-30T09:45:35Z</time>
      </trkpt>
      <trkpt lat="45.05836" lon="2.80262">
        <ele>1358.96</ele>
        <time>2014-12-30T09:45:55Z</time>
      </trkpt>
      <trkpt lat="45.05839" lon="2.80269">
        <ele>1358.48</ele>
        <time>2014-12-30T09:46:12Z</time>
      </trkpt>
      <trkpt lat="45.05842" lon="2.8028">
        <ele>1356.56</ele>
        <time>2014-12-30T09:46:20Z</time>
      </trkpt>
      <trkpt lat="45.05846" lon="2.80313">
        <ele>1353.67</ele>
        <time>2014-12-30T09:46:40Z</time>
      </trkpt>
      <trkpt lat="45.05848" lon="2.80317">
        <ele>1352.71</ele>
        <time>2014-12-30T09:46:46Z</time>
      </trkpt>
      <trkpt lat="45.05855" lon="2.80334">
        <ele>1350.31</ele>
        <time>2014-12-30T09:46:57Z</time>
      </trkpt>
      <trkpt lat="45.0587" lon="2.80354">
        <ele>1346.46</ele>
        <time>2014-12-30T09:47:12Z</time>
      </trkpt>
      <trkpt lat="45.05878" lon="2.80364">
        <ele>1346.46</ele>
        <time>2014-12-30T09:47:20Z</time>
      </trkpt>
      <trkpt lat="45.05892" lon="2.80392">
        <ele>1342.62</ele>
        <time>2014-12-30T09:47:40Z</time>
      </trkpt>
      <trkpt lat="45.05908" lon="2.80414">
        <ele>1341.66</ele>
        <time>2014-12-30T09:48:00Z</time>
      </trkpt>
      <trkpt lat="45.05923" lon="2.80435">
        <ele>1338.29</ele>
        <time>2014-12-30T09:48:19Z</time>
      </trkpt>
      <trkpt lat="45.0593" lon="2.80442">
        <ele>1337.33</ele>
        <time>2014-12-30T09:48:26Z</time>
      </trkpt>
      <trkpt lat="45.05938" lon="2.80451">
        <ele>1334.45</ele>
        <time>2014-12-30T09:48:36Z</time>
      </trkpt>
      <trkpt lat="45.05946" lon="2.80467">
        <ele>1333.97</ele>
        <time>2014-12-30T09:48:50Z</time>
      </trkpt>
      <trkpt lat="45.05952" lon="2.80504">
        <ele>1332.04</ele>
        <time>2014-12-30T09:49:11Z</time>
      </trkpt>
      <trkpt lat="45.05949" lon="2.80542">
        <ele>1330.6</ele>
        <time>2014-12-30T09:49:34Z</time>
      </trkpt>
      <trkpt lat="45.05937" lon="2.80573">
        <ele>1327.24</ele>
        <time>2014-12-30T09:49:54Z</time>
      </trkpt>
      <trkpt lat="45.05923" lon="2.80609">
        <ele>1324.83</ele>
        <time>2014-12-30T09:50:17Z</time>
      </trkpt>
      <trkpt lat="45.05917" lon="2.80638">
        <ele>1322.43</ele>
        <time>2014-12-30T09:50:37Z</time>
      </trkpt>
      <trkpt lat="45.05906" lon="2.80665">
        <ele>1321.95</ele>
        <time>2014-12-30T09:50:57Z</time>
      </trkpt>
      <trkpt lat="45.05894" lon="2.8069">
        <ele>1320.99</ele>
        <time>2014-12-30T09:51:16Z</time>
      </trkpt>
      <trkpt lat="45.05875" lon="2.80721">
        <ele>1320.99</ele>
        <time>2014-12-30T09:51:40Z</time>
      </trkpt>
      <trkpt lat="45.05868" lon="2.80749">
        <ele>1321.47</ele>
        <time>2014-12-30T09:52:00Z</time>
      </trkpt>
      <trkpt lat="45.05868" lon="2.80776">
        <ele>1322.91</ele>
        <time>2014-12-30T09:52:20Z</time>
      </trkpt>
      <trkpt lat="45.05866" lon="2.80794">
        <ele>1322.91</ele>
        <time>2014-12-30T09:52:42Z</time>
      </trkpt>
      <trkpt lat="45.05873" lon="2.80798">
        <ele>1323.39</ele>
        <time>2014-12-30T09:53:28Z</time>
      </trkpt>
      <trkpt lat="45.05879" lon="2.8083">
        <ele>1321.95</ele>
        <time>2014-12-30T09:53:49Z</time>
      </trkpt>
      <trkpt lat="45.05882" lon="2.80859">
        <ele>1321.47</ele>
        <time>2014-12-30T09:54:06Z</time>
      </trkpt>
      <trkpt lat="45.05884" lon="2.80864">
        <ele>1321.47</ele>
        <time>2014-12-30T09:54:10Z</time>
      </trkpt>
      <trkpt lat="45.05886" lon="2.80881">
        <ele>1321.47</ele>
        <time>2014-12-30T09:54:21Z</time>
      </trkpt>
      <trkpt lat="45.05892" lon="2.80909">
        <ele>1322.43</ele>
        <time>2014-12-30T09:54:41Z</time>
      </trkpt>
      <trkpt lat="45.05895" lon="2.80921">
        <ele>1323.39</ele>
        <time>2014-12-30T09:54:52Z</time>
      </trkpt>
      <trkpt lat="45.059" lon="2.80946">
        <ele>1324.35</ele>
        <time>2014-12-30T09:55:11Z</time>
      </trkpt>
      <trkpt lat="45.05904" lon="2.80972">
        <ele>1326.76</ele>
        <time>2014-12-30T09:55:33Z</time>
      </trkpt>
      <trkpt lat="45.05908" lon="2.80982">
        <ele>1328.2</ele>
        <time>2014-12-30T09:55:42Z</time>
      </trkpt>
      <trkpt lat="45.0591" lon="2.8099">
        <ele>1328.2</ele>
        <time>2014-12-30T09:55:47Z</time>
      </trkpt>
      <trkpt lat="45.05911" lon="2.80997">
        <ele>1328.2</ele>
        <time>2014-12-30T09:55:52Z</time>
      </trkpt>
      <trkpt lat="45.05912" lon="2.81">
        <ele>1328.2</ele>
        <time>2014-12-30T09:55:54Z</time>
      </trkpt>
      <trkpt lat="45.05917" lon="2.81032">
        <ele>1328.68</ele>
        <time>2014-12-30T09:56:15Z</time>
      </trkpt>
      <trkpt lat="45.05922" lon="2.81051">
        <ele>1327.72</ele>
        <time>2014-12-30T09:56:28Z</time>
      </trkpt>
      <trkpt lat="45.05923" lon="2.81064">
        <ele>1328.2</ele>
        <time>2014-12-30T09:56:36Z</time>
      </trkpt>
      <trkpt lat="45.05925" lon="2.81071">
        <ele>1327.72</ele>
        <time>2014-12-30T09:56:40Z</time>
      </trkpt>
      <trkpt lat="45.05928" lon="2.81082">
        <ele>1328.2</ele>
        <time>2014-12-30T09:56:47Z</time>
      </trkpt>
      <trkpt lat="45.05932" lon="2.81092">
        <ele>1327.24</ele>
        <time>2014-12-30T09:56:54Z</time>
      </trkpt>
      <trkpt lat="45.05934" lon="2.81104">
        <ele>1327.24</ele>
        <time>2014-12-30T09:57:01Z</time>
      </trkpt>
      <trkpt lat="45.05936" lon="2.81125">
        <ele>1326.28</ele>
        <time>2014-12-30T09:57:14Z</time>
      </trkpt>
      <trkpt lat="45.05937" lon="2.81133">
        <ele>1326.76</ele>
        <time>2014-12-30T09:57:19Z</time>
      </trkpt>
      <trkpt lat="45.05938" lon="2.81142">
        <ele>1326.28</ele>
        <time>2014-12-30T09:57:24Z</time>
      </trkpt>
      <trkpt lat="45.05943" lon="2.81175">
        <ele>1324.83</ele>
        <time>2014-12-30T09:57:45Z</time>
      </trkpt>
      <trkpt lat="45.05945" lon="2.8119">
        <ele>1324.35</ele>
        <time>2014-12-30T09:57:54Z</time>
      </trkpt>
      <trkpt lat="45.05946" lon="2.81202">
        <ele>1324.35</ele>
        <time>2014-12-30T09:58:02Z</time>
      </trkpt>
      <trkpt lat="45.05946" lon="2.81205">
        <ele>1323.87</ele>
        <time>2014-12-30T09:58:04Z</time>
      </trkpt>
      <trkpt lat="45.05952" lon="2.81234">
        <ele>1324.35</ele>
        <time>2014-12-30T09:58:20Z</time>
      </trkpt>
      <trkpt lat="45.05954" lon="2.81261">
        <ele>1324.35</ele>
        <time>2014-12-30T09:58:38Z</time>
      </trkpt>
      <trkpt lat="45.05944" lon="2.81296">
        <ele>1323.39</ele>
        <time>2014-12-30T09:58:59Z</time>
      </trkpt>
      <trkpt lat="45.05941" lon="2.81329">
        <ele>1322.43</ele>
        <time>2014-12-30T09:59:19Z</time>
      </trkpt>
      <trkpt lat="45.05941" lon="2.81331">
        <ele>1321.95</ele>
        <time>2014-12-30T09:59:20Z</time>
      </trkpt>
      <trkpt lat="45.05942" lon="2.81345">
        <ele>1321.47</ele>
        <time>2014-12-30T09:59:28Z</time>
      </trkpt>
      <trkpt lat="45.05943" lon="2.81356">
        <ele>1321.47</ele>
        <time>2014-12-30T09:59:35Z</time>
      </trkpt>
      <trkpt lat="45.05944" lon="2.81371">
        <ele>1321.47</ele>
        <time>2014-12-30T09:59:45Z</time>
      </trkpt>
      <trkpt lat="45.05946" lon="2.81378">
        <ele>1321.47</ele>
        <time>2014-12-30T09:59:50Z</time>
      </trkpt>
      <trkpt lat="45.05948" lon="2.81387">
        <ele>1321.47</ele>
        <time>2014-12-30T09:59:56Z</time>
      </trkpt>
      <trkpt lat="45.05949" lon="2.81403">
        <ele>1321.47</ele>
        <time>2014-12-30T10:00:06Z</time>
      </trkpt>
      <trkpt lat="45.05949" lon="2.81416">
        <ele>1321.47</ele>
        <time>2014-12-30T10:00:14Z</time>
      </trkpt>
      <trkpt lat="45.05949" lon="2.81424">
        <ele>1321.95</ele>
        <time>2014-12-30T10:00:18Z</time>
      </trkpt>
      <trkpt lat="45.05949" lon="2.8145">
        <ele>1321.95</ele>
        <time>2014-12-30T10:00:34Z</time>
      </trkpt>
      <trkpt lat="45.05948" lon="2.81481">
        <ele>1320.99</ele>
        <time>2014-12-30T10:00:53Z</time>
      </trkpt>
      <trkpt lat="45.05948" lon="2.81503">
        <ele>1320.03</ele>
        <time>2014-12-30T10:01:06Z</time>
      </trkpt>
      <trkpt lat="45.0595" lon="2.81534">
        <ele>1318.1</ele>
        <time>2014-12-30T10:01:24Z</time>
      </trkpt>
      <trkpt lat="45.0595" lon="2.81539">
        <ele>1318.1</ele>
        <time>2014-12-30T10:01:27Z</time>
      </trkpt>
      <trkpt lat="45.05949" lon="2.81545">
        <ele>1317.14</ele>
        <time>2014-12-30T10:01:31Z</time>
      </trkpt>
      <trkpt lat="45.05949" lon="2.81551">
        <ele>1317.14</ele>
        <time>2014-12-30T10:01:34Z</time>
      </trkpt>
      <trkpt lat="45.0595" lon="2.81565">
        <ele>1315.7</ele>
        <time>2014-12-30T10:01:42Z</time>
      </trkpt>
      <trkpt lat="45.05949" lon="2.81588">
        <ele>1314.26</ele>
        <time>2014-12-30T10:01:57Z</time>
      </trkpt>
      <trkpt lat="45.05943" lon="2.81618">
        <ele>1311.86</ele>
        <time>2014-12-30T10:02:14Z</time>
      </trkpt>
      <trkpt lat="45.05942" lon="2.81623">
        <ele>1311.86</ele>
        <time>2014-12-30T10:02:17Z</time>
      </trkpt>
      <trkpt lat="45.05936" lon="2.81655">
        <ele>1310.9</ele>
        <time>2014-12-30T10:02:34Z</time>
      </trkpt>
      <trkpt lat="45.05935" lon="2.81681">
        <ele>1310.41</ele>
        <time>2014-12-30T10:02:48Z</time>
      </trkpt>
      <trkpt lat="45.05936" lon="2.81688">
        <ele>1310.9</ele>
        <time>2014-12-30T10:02:52Z</time>
      </trkpt>
      <trkpt lat="45.05939" lon="2.81711">
        <ele>1310.9</ele>
        <time>2014-12-30T10:03:05Z</time>
      </trkpt>
      <trkpt lat="45.05941" lon="2.81718">
        <ele>1311.38</ele>
        <time>2014-12-30T10:03:10Z</time>
      </trkpt>
      <trkpt lat="45.05951" lon="2.81752">
        <ele>1310.9</ele>
        <time>2014-12-30T10:03:33Z</time>
      </trkpt>
      <trkpt lat="45.05955" lon="2.81769">
        <ele>1309.93</ele>
        <time>2014-12-30T10:03:44Z</time>
      </trkpt>
      <trkpt lat="45.05955" lon="2.81774">
        <ele>1309.93</ele>
        <time>2014-12-30T10:03:48Z</time>
      </trkpt>
      <trkpt lat="45.05957" lon="2.81784">
        <ele>1309.93</ele>
        <time>2014-12-30T10:03:53Z</time>
      </trkpt>
      <trkpt lat="45.05957" lon="2.81797">
        <ele>1308.97</ele>
        <time>2014-12-30T10:04:00Z</time>
      </trkpt>
      <trkpt lat="45.0596" lon="2.81828">
        <ele>1307.05</ele>
        <time>2014-12-30T10:04:20Z</time>
      </trkpt>
      <trkpt lat="45.0596" lon="2.81839">
        <ele>1305.61</ele>
        <time>2014-12-30T10:04:26Z</time>
      </trkpt>
      <trkpt lat="45.05961" lon="2.81851">
        <ele>1304.65</ele>
        <time>2014-12-30T10:04:32Z</time>
      </trkpt>
      <trkpt lat="45.05963" lon="2.8186">
        <ele>1304.17</ele>
        <time>2014-12-30T10:04:37Z</time>
      </trkpt>
      <trkpt lat="45.05965" lon="2.81867">
        <ele>1303.69</ele>
        <time>2014-12-30T10:04:41Z</time>
      </trkpt>
      <trkpt lat="45.05966" lon="2.8187">
        <ele>1303.2</ele>
        <time>2014-12-30T10:04:43Z</time>
      </trkpt>
      <trkpt lat="45.05971" lon="2.81899">
        <ele>1299.84</ele>
        <time>2014-12-30T10:05:00Z</time>
      </trkpt>
      <trkpt lat="45.05972" lon="2.81903">
        <ele>1299.84</ele>
        <time>2014-12-30T10:05:02Z</time>
      </trkpt>
      <trkpt lat="45.05975" lon="2.8191">
        <ele>1299.36</ele>
        <time>2014-12-30T10:05:06Z</time>
      </trkpt>
      <trkpt lat="45.05975" lon="2.81914">
        <ele>1299.36</ele>
        <time>2014-12-30T10:05:08Z</time>
      </trkpt>
      <trkpt lat="45.05978" lon="2.81924">
        <ele>1298.4</ele>
        <time>2014-12-30T10:05:14Z</time>
      </trkpt>
      <trkpt lat="45.05983" lon="2.81938">
        <ele>1296.48</ele>
        <time>2014-12-30T10:05:25Z</time>
      </trkpt>
      <trkpt lat="45.05984" lon="2.81963">
        <ele>1293.59</ele>
        <time>2014-12-30T10:05:38Z</time>
      </trkpt>
      <trkpt lat="45.05989" lon="2.81986">
        <ele>1290.71</ele>
        <time>2014-12-30T10:05:53Z</time>
      </trkpt>
      <trkpt lat="45.05993" lon="2.81999">
        <ele>1288.78</ele>
        <time>2014-12-30T10:06:01Z</time>
      </trkpt>
      <trkpt lat="45.05998" lon="2.82005">
        <ele>1287.82</ele>
        <time>2014-12-30T10:06:06Z</time>
      </trkpt>
      <trkpt lat="45.06013" lon="2.82034">
        <ele>1284.46</ele>
        <time>2014-12-30T10:06:26Z</time>
      </trkpt>
      <trkpt lat="45.06028" lon="2.82062">
        <ele>1281.57</ele>
        <time>2014-12-30T10:06:45Z</time>
      </trkpt>
      <trkpt lat="45.06041" lon="2.82088">
        <ele>1278.21</ele>
        <time>2014-12-30T10:07:03Z</time>
      </trkpt>
      <trkpt lat="45.06042" lon="2.82089">
        <ele>1278.21</ele>
        <time>2014-12-30T10:07:04Z</time>
      </trkpt>
      <trkpt lat="45.06063" lon="2.82121">
        <ele>1275.81</ele>
        <time>2014-12-30T10:07:27Z</time>
      </trkpt>
      <trkpt lat="45.06079" lon="2.82155">
        <ele>1273.4</ele>
        <time>2014-12-30T10:07:50Z</time>
      </trkpt>
      <trkpt lat="45.06087" lon="2.82175">
        <ele>1272.44</ele>
        <time>2014-12-30T10:08:01Z</time>
      </trkpt>
      <trkpt lat="45.06101" lon="2.82208">
        <ele>1271</ele>
        <time>2014-12-30T10:08:23Z</time>
      </trkpt>
      <trkpt lat="45.0612" lon="2.82241">
        <ele>1268.6</ele>
        <time>2014-12-30T10:08:46Z</time>
      </trkpt>
      <trkpt lat="45.06135" lon="2.82274">
        <ele>1267.16</ele>
        <time>2014-12-30T10:09:08Z</time>
      </trkpt>
      <trkpt lat="45.06154" lon="2.82308">
        <ele>1264.27</ele>
        <time>2014-12-30T10:09:33Z</time>
      </trkpt>
      <trkpt lat="45.0617" lon="2.8234">
        <ele>1262.35</ele>
        <time>2014-12-30T10:09:54Z</time>
      </trkpt>
      <trkpt lat="45.0617" lon="2.82341">
        <ele>1262.83</ele>
        <time>2014-12-30T10:09:55Z</time>
      </trkpt>
      <trkpt lat="45.06173" lon="2.8235">
        <ele>1262.35</ele>
        <time>2014-12-30T10:10:01Z</time>
      </trkpt>
      <trkpt lat="45.06176" lon="2.82354">
        <ele>1261.87</ele>
        <time>2014-12-30T10:10:04Z</time>
      </trkpt>
      <trkpt lat="45.0619" lon="2.82377">
        <ele>1261.39</ele>
        <time>2014-12-30T10:10:21Z</time>
      </trkpt>
      <trkpt lat="45.06209" lon="2.8241">
        <ele>1259.94</ele>
        <time>2014-12-30T10:10:43Z</time>
      </trkpt>
      <trkpt lat="45.0622" lon="2.82433">
        <ele>1259.46</ele>
        <time>2014-12-30T10:10:58Z</time>
      </trkpt>
      <trkpt lat="45.06229" lon="2.82453">
        <ele>1259.46</ele>
        <time>2014-12-30T10:11:11Z</time>
      </trkpt>
      <trkpt lat="45.06231" lon="2.82481">
        <ele>1259.94</ele>
        <time>2014-12-30T10:11:26Z</time>
      </trkpt>
      <trkpt lat="45.06232" lon="2.82485">
        <ele>1260.43</ele>
        <time>2014-12-30T10:11:28Z</time>
      </trkpt>
      <trkpt lat="45.06229" lon="2.82497">
        <ele>1260.43</ele>
        <time>2014-12-30T10:11:36Z</time>
      </trkpt>
      <trkpt lat="45.06225" lon="2.82508">
        <ele>1260.43</ele>
        <time>2014-12-30T10:11:44Z</time>
      </trkpt>
      <trkpt lat="45.06222" lon="2.8252">
        <ele>1260.91</ele>
        <time>2014-12-30T10:11:53Z</time>
      </trkpt>
      <trkpt lat="45.06223" lon="2.8254">
        <ele>1260.43</ele>
        <time>2014-12-30T10:12:03Z</time>
      </trkpt>
      <trkpt lat="45.06235" lon="2.82548">
        <ele>1260.43</ele>
        <time>2014-12-30T10:12:14Z</time>
      </trkpt>
      <trkpt lat="45.06261" lon="2.82553">
        <ele>1258.98</ele>
        <time>2014-12-30T10:12:35Z</time>
      </trkpt>
      <trkpt lat="45.06268" lon="2.82559">
        <ele>1258.5</ele>
        <time>2014-12-30T10:12:57Z</time>
      </trkpt>
      <trkpt lat="45.06274" lon="2.82576">
        <ele>1259.94</ele>
        <time>2014-12-30T10:13:24Z</time>
      </trkpt>
      <trkpt lat="45.06281" lon="2.82593">
        <ele>1262.35</ele>
        <time>2014-12-30T10:13:40Z</time>
      </trkpt>
      <trkpt lat="45.06285" lon="2.8262">
        <ele>1264.75</ele>
        <time>2014-12-30T10:14:01Z</time>
      </trkpt>
      <trkpt lat="45.06289" lon="2.82648">
        <ele>1265.71</ele>
        <time>2014-12-30T10:14:22Z</time>
      </trkpt>
      <trkpt lat="45.06291" lon="2.82672">
        <ele>1267.16</ele>
        <time>2014-12-30T10:14:38Z</time>
      </trkpt>
      <trkpt lat="45.0629" lon="2.82675">
        <ele>1267.16</ele>
        <time>2014-12-30T10:14:40Z</time>
      </trkpt>
      <trkpt lat="45.06294" lon="2.82704">
        <ele>1268.12</ele>
        <time>2014-12-30T10:14:59Z</time>
      </trkpt>
      <trkpt lat="45.06295" lon="2.82722">
        <ele>1268.12</ele>
        <time>2014-12-30T10:15:20Z</time>
      </trkpt>
      <trkpt lat="45.06302" lon="2.82731">
        <ele>1266.67</ele>
        <time>2014-12-30T10:15:52Z</time>
      </trkpt>
      <trkpt lat="45.06314" lon="2.82752">
        <ele>1263.79</ele>
        <time>2014-12-30T10:16:12Z</time>
      </trkpt>
      <trkpt lat="45.06327" lon="2.82765">
        <ele>1262.35</ele>
        <time>2014-12-30T10:16:34Z</time>
      </trkpt>
      <trkpt lat="45.06335" lon="2.82769">
        <ele>1261.39</ele>
        <time>2014-12-30T10:16:42Z</time>
      </trkpt>
      <trkpt lat="45.06351" lon="2.82783">
        <ele>1258.02</ele>
        <time>2014-12-30T10:17:00Z</time>
      </trkpt>
      <trkpt lat="45.06375" lon="2.82793">
        <ele>1255.14</ele>
        <time>2014-12-30T10:17:20Z</time>
      </trkpt>
      <trkpt lat="45.06396" lon="2.82803">
        <ele>1254.18</ele>
        <time>2014-12-30T10:17:39Z</time>
      </trkpt>
      <trkpt lat="45.06402" lon="2.82809">
        <ele>1253.22</ele>
        <time>2014-12-30T10:17:46Z</time>
      </trkpt>
      <trkpt lat="45.06407" lon="2.82814">
        <ele>1252.74</ele>
        <time>2014-12-30T10:17:51Z</time>
      </trkpt>
      <trkpt lat="45.06425" lon="2.82847">
        <ele>1251.29</ele>
        <time>2014-12-30T10:18:15Z</time>
      </trkpt>
      <trkpt lat="45.0643" lon="2.82854">
        <ele>1251.29</ele>
        <time>2014-12-30T10:18:21Z</time>
      </trkpt>
      <trkpt lat="45.06437" lon="2.82864">
        <ele>1251.77</ele>
        <time>2014-12-30T10:18:29Z</time>
      </trkpt>
      <trkpt lat="45.0644" lon="2.8288">
        <ele>1251.77</ele>
        <time>2014-12-30T10:18:51Z</time>
      </trkpt>
      <trkpt lat="45.06441" lon="2.82889">
        <ele>1251.77</ele>
        <time>2014-12-30T10:18:57Z</time>
      </trkpt>
      <trkpt lat="45.06441" lon="2.82895">
        <ele>1251.77</ele>
        <time>2014-12-30T10:19:00Z</time>
      </trkpt>
      <trkpt lat="45.06444" lon="2.82907">
        <ele>1251.77</ele>
        <time>2014-12-30T10:19:07Z</time>
      </trkpt>
      <trkpt lat="45.06448" lon="2.82936">
        <ele>1250.33</ele>
        <time>2014-12-30T10:19:24Z</time>
      </trkpt>
      <trkpt lat="45.06454" lon="2.8296">
        <ele>1251.29</ele>
        <time>2014-12-30T10:19:41Z</time>
      </trkpt>
      <trkpt lat="45.06464" lon="2.82985">
        <ele>1253.7</ele>
        <time>2014-12-30T10:20:02Z</time>
      </trkpt>
      <trkpt lat="45.06472" lon="2.83008">
        <ele>1256.58</ele>
        <time>2014-12-30T10:20:22Z</time>
      </trkpt>
      <trkpt lat="45.06472" lon="2.83011">
        <ele>1256.1</ele>
        <time>2014-12-30T10:20:24Z</time>
      </trkpt>
      <trkpt lat="45.06479" lon="2.83037">
        <ele>1259.46</ele>
        <time>2014-12-30T10:20:45Z</time>
      </trkpt>
      <trkpt lat="45.06486" lon="2.83052">
        <ele>1261.39</ele>
        <time>2014-12-30T10:21:02Z</time>
      </trkpt>
      <trkpt lat="45.06489" lon="2.8306">
        <ele>1261.39</ele>
        <time>2014-12-30T10:21:09Z</time>
      </trkpt>
      <trkpt lat="45.06492" lon="2.83067">
        <ele>1262.35</ele>
        <time>2014-12-30T10:21:28Z</time>
      </trkpt>
      <trkpt lat="45.06494" lon="2.83068">
        <ele>1262.83</ele>
        <time>2014-12-30T10:21:39Z</time>
      </trkpt>
      <trkpt lat="45.06513" lon="2.83075">
        <ele>1261.87</ele>
        <time>2014-12-30T10:21:58Z</time>
      </trkpt>
      <trkpt lat="45.06515" lon="2.83077">
        <ele>1261.87</ele>
        <time>2014-12-30T10:21:59Z</time>
      </trkpt>
      <trkpt lat="45.06531" lon="2.83107">
        <ele>1259.94</ele>
        <time>2014-12-30T10:22:21Z</time>
      </trkpt>
      <trkpt lat="45.06541" lon="2.83126">
        <ele>1260.43</ele>
        <time>2014-12-30T10:22:35Z</time>
      </trkpt>
      <trkpt lat="45.06546" lon="2.83142">
        <ele>1260.91</ele>
        <time>2014-12-30T10:22:46Z</time>
      </trkpt>
      <trkpt lat="45.06551" lon="2.83153">
        <ele>1260.91</ele>
        <time>2014-12-30T10:22:53Z</time>
      </trkpt>
      <trkpt lat="45.06554" lon="2.83159">
        <ele>1260.91</ele>
        <time>2014-12-30T10:22:57Z</time>
      </trkpt>
      <trkpt lat="45.06561" lon="2.83172">
        <ele>1259.94</ele>
        <time>2014-12-30T10:23:06Z</time>
      </trkpt>
      <trkpt lat="45.06572" lon="2.83199">
        <ele>1259.46</ele>
        <time>2014-12-30T10:23:24Z</time>
      </trkpt>
      <trkpt lat="45.06578" lon="2.8322">
        <ele>1259.94</ele>
        <time>2014-12-30T10:23:39Z</time>
      </trkpt>
      <trkpt lat="45.06586" lon="2.83241">
        <ele>1258.98</ele>
        <time>2014-12-30T10:23:52Z</time>
      </trkpt>
      <trkpt lat="45.06593" lon="2.83249">
        <ele>1258.5</ele>
        <time>2014-12-30T10:24:00Z</time>
      </trkpt>
      <trkpt lat="45.06607" lon="2.83263">
        <ele>1255.62</ele>
        <time>2014-12-30T10:24:14Z</time>
      </trkpt>
      <trkpt lat="45.06613" lon="2.83269">
        <ele>1253.7</ele>
        <time>2014-12-30T10:24:21Z</time>
      </trkpt>
      <trkpt lat="45.06629" lon="2.83293">
        <ele>1251.77</ele>
        <time>2014-12-30T10:24:42Z</time>
      </trkpt>
      <trkpt lat="45.06632" lon="2.83298">
        <ele>1251.29</ele>
        <time>2014-12-30T10:24:46Z</time>
      </trkpt>
      <trkpt lat="45.06633" lon="2.833">
        <ele>1251.77</ele>
        <time>2014-12-30T10:24:48Z</time>
      </trkpt>
      <trkpt lat="45.06644" lon="2.83324">
        <ele>1248.41</ele>
        <time>2014-12-30T10:25:07Z</time>
      </trkpt>
      <trkpt lat="45.06645" lon="2.83324">
        <ele>1248.41</ele>
        <time>2014-12-30T10:25:08Z</time>
      </trkpt>
      <trkpt lat="45.06649" lon="2.83328">
        <ele>1247.93</ele>
        <time>2014-12-30T10:25:12Z</time>
      </trkpt>
      <trkpt lat="45.06653" lon="2.83331">
        <ele>1247.93</ele>
        <time>2014-12-30T10:25:36Z</time>
      </trkpt>
      <trkpt lat="45.06656" lon="2.83327">
        <ele>1248.41</ele>
        <time>2014-12-30T10:26:03Z</time>
      </trkpt>
      <trkpt lat="45.06657" lon="2.83328">
        <ele>1248.41</ele>
        <time>2014-12-30T10:26:32Z</time>
      </trkpt>
      <trkpt lat="45.06657" lon="2.83328">
        <ele>1248.89</ele>
        <time>2014-12-30T10:26:51Z</time>
      </trkpt>
      <trkpt lat="45.06656" lon="2.83329">
        <ele>1248.89</ele>
        <time>2014-12-30T10:27:13Z</time>
      </trkpt>
      <trkpt lat="45.06657" lon="2.83329">
        <ele>1248.41</ele>
        <time>2014-12-30T10:27:35Z</time>
      </trkpt>
      <trkpt lat="45.06654" lon="2.83335">
        <ele>1248.41</ele>
        <time>2014-12-30T10:27:54Z</time>
      </trkpt>
      <trkpt lat="45.06654" lon="2.83336">
        <ele>1248.89</ele>
        <time>2014-12-30T10:28:13Z</time>
      </trkpt>
      <trkpt lat="45.06655" lon="2.83336">
        <ele>1249.85</ele>
        <time>2014-12-30T10:28:50Z</time>
      </trkpt>
      <trkpt lat="45.06654" lon="2.83336">
        <ele>1250.33</ele>
        <time>2014-12-30T10:29:16Z</time>
      </trkpt>
      <trkpt lat="45.06656" lon="2.8334">
        <ele>1250.81</ele>
        <time>2014-12-30T10:29:19Z</time>
      </trkpt>
      <trkpt lat="45.06657" lon="2.83343">
        <ele>1250.81</ele>
        <time>2014-12-30T10:29:22Z</time>
      </trkpt>
      <trkpt lat="45.06655" lon="2.83335">
        <ele>1250.81</ele>
        <time>2014-12-30T10:29:42Z</time>
      </trkpt>
      <trkpt lat="45.06655" lon="2.83336">
        <ele>1250.33</ele>
        <time>2014-12-30T10:30:04Z</time>
      </trkpt>
      <trkpt lat="45.0666" lon="2.83345">
        <ele>1250.33</ele>
        <time>2014-12-30T10:30:12Z</time>
      </trkpt>
      <trkpt lat="45.06665" lon="2.83351">
        <ele>1250.81</ele>
        <time>2014-12-30T10:30:17Z</time>
      </trkpt>
      <trkpt lat="45.06673" lon="2.83365">
        <ele>1250.81</ele>
        <time>2014-12-30T10:30:26Z</time>
      </trkpt>
      <trkpt lat="45.06675" lon="2.83367">
        <ele>1251.29</ele>
        <time>2014-12-30T10:30:29Z</time>
      </trkpt>
      <trkpt lat="45.06691" lon="2.83396">
        <ele>1249.85</ele>
        <time>2014-12-30T10:30:50Z</time>
      </trkpt>
      <trkpt lat="45.06697" lon="2.83406">
        <ele>1247.93</ele>
        <time>2014-12-30T10:30:58Z</time>
      </trkpt>
      <trkpt lat="45.067" lon="2.83412">
        <ele>1247.45</ele>
        <time>2014-12-30T10:31:02Z</time>
      </trkpt>
      <trkpt lat="45.06713" lon="2.83445">
        <ele>1244.56</ele>
        <time>2014-12-30T10:31:24Z</time>
      </trkpt>
      <trkpt lat="45.06715" lon="2.83452">
        <ele>1244.56</ele>
        <time>2014-12-30T10:31:32Z</time>
      </trkpt>
      <trkpt lat="45.06708" lon="2.83489">
        <ele>1243.6</ele>
        <time>2014-12-30T10:31:54Z</time>
      </trkpt>
      <trkpt lat="45.06698" lon="2.83526">
        <ele>1242.64</ele>
        <time>2014-12-30T10:32:15Z</time>
      </trkpt>
      <trkpt lat="45.06695" lon="2.83533">
        <ele>1241.68</ele>
        <time>2014-12-30T10:32:21Z</time>
      </trkpt>
      <trkpt lat="45.06692" lon="2.83548">
        <ele>1241.68</ele>
        <time>2014-12-30T10:32:34Z</time>
      </trkpt>
      <trkpt lat="45.06685" lon="2.83575">
        <ele>1242.16</ele>
        <time>2014-12-30T10:32:51Z</time>
      </trkpt>
      <trkpt lat="45.06684" lon="2.83596">
        <ele>1242.64</ele>
        <time>2014-12-30T10:33:10Z</time>
      </trkpt>
      <trkpt lat="45.06685" lon="2.83599">
        <ele>1242.64</ele>
        <time>2014-12-30T10:33:12Z</time>
      </trkpt>
      <trkpt lat="45.06705" lon="2.83629">
        <ele>1242.16</ele>
        <time>2014-12-30T10:33:34Z</time>
      </trkpt>
      <trkpt lat="45.06729" lon="2.8366">
        <ele>1241.68</ele>
        <time>2014-12-30T10:33:58Z</time>
      </trkpt>
      <trkpt lat="45.06754" lon="2.83683">
        <ele>1242.16</ele>
        <time>2014-12-30T10:34:24Z</time>
      </trkpt>
      <trkpt lat="45.06777" lon="2.83699">
        <ele>1240.24</ele>
        <time>2014-12-30T10:34:45Z</time>
      </trkpt>
      <trkpt lat="45.06803" lon="2.83717">
        <ele>1237.35</ele>
        <time>2014-12-30T10:35:07Z</time>
      </trkpt>
      <trkpt lat="45.06826" lon="2.83723">
        <ele>1233.99</ele>
        <time>2014-12-30T10:35:25Z</time>
      </trkpt>
      <trkpt lat="45.06837" lon="2.83732">
        <ele>1232.07</ele>
        <time>2014-12-30T10:35:40Z</time>
      </trkpt>
      <trkpt lat="45.06844" lon="2.8374">
        <ele>1231.11</ele>
        <time>2014-12-30T10:35:47Z</time>
      </trkpt>
      <trkpt lat="45.06865" lon="2.83771">
        <ele>1229.18</ele>
        <time>2014-12-30T10:36:10Z</time>
      </trkpt>
      <trkpt lat="45.0687" lon="2.83778">
        <ele>1228.7</ele>
        <time>2014-12-30T10:36:16Z</time>
      </trkpt>
      <trkpt lat="45.06884" lon="2.83808">
        <ele>1227.26</ele>
        <time>2014-12-30T10:36:37Z</time>
      </trkpt>
      <trkpt lat="45.06904" lon="2.83835">
        <ele>1226.78</ele>
        <time>2014-12-30T10:36:59Z</time>
      </trkpt>
      <trkpt lat="45.06909" lon="2.83843">
        <ele>1226.3</ele>
        <time>2014-12-30T10:37:04Z</time>
      </trkpt>
      <trkpt lat="45.06938" lon="2.83869">
        <ele>1225.82</ele>
        <time>2014-12-30T10:37:29Z</time>
      </trkpt>
      <trkpt lat="45.06957" lon="2.83882">
        <ele>1222.45</ele>
        <time>2014-12-30T10:37:45Z</time>
      </trkpt>
      <trkpt lat="45.06974" lon="2.83903">
        <ele>1223.9</ele>
        <time>2014-12-30T10:38:06Z</time>
      </trkpt>
      <trkpt lat="45.06975" lon="2.83904">
        <ele>1223.42</ele>
        <time>2014-12-30T10:38:07Z</time>
      </trkpt>
      <trkpt lat="45.06982" lon="2.8392">
        <ele>1224.86</ele>
        <time>2014-12-30T10:38:19Z</time>
      </trkpt>
      <trkpt lat="45.06997" lon="2.83953">
        <ele>1225.82</ele>
        <time>2014-12-30T10:38:42Z</time>
      </trkpt>
      <trkpt lat="45.07011" lon="2.83976">
        <ele>1228.22</ele>
        <time>2014-12-30T10:39:03Z</time>
      </trkpt>
      <trkpt lat="45.07026" lon="2.84">
        <ele>1229.66</ele>
        <time>2014-12-30T10:39:25Z</time>
      </trkpt>
      <trkpt lat="45.07039" lon="2.84027">
        <ele>1231.11</ele>
        <time>2014-12-30T10:39:47Z</time>
      </trkpt>
      <trkpt lat="45.07042" lon="2.84032">
        <ele>1231.59</ele>
        <time>2014-12-30T10:39:51Z</time>
      </trkpt>
      <trkpt lat="45.07044" lon="2.84049">
        <ele>1232.07</ele>
        <time>2014-12-30T10:40:13Z</time>
      </trkpt>
      <trkpt lat="45.07047" lon="2.84083">
        <ele>1233.99</ele>
        <time>2014-12-30T10:40:35Z</time>
      </trkpt>
      <trkpt lat="45.07049" lon="2.84115">
        <ele>1235.43</ele>
        <time>2014-12-30T10:40:59Z</time>
      </trkpt>
      <trkpt lat="45.0705" lon="2.8414">
        <ele>1236.87</ele>
        <time>2014-12-30T10:41:19Z</time>
      </trkpt>
      <trkpt lat="45.07052" lon="2.8414">
        <ele>1236.87</ele>
        <time>2014-12-30T10:41:40Z</time>
      </trkpt>
      <trkpt lat="45.07052" lon="2.84139">
        <ele>1237.83</ele>
        <time>2014-12-30T10:42:17Z</time>
      </trkpt>
      <trkpt lat="45.07052" lon="2.84161">
        <ele>1239.76</ele>
        <time>2014-12-30T10:42:40Z</time>
      </trkpt>
      <trkpt lat="45.07054" lon="2.84191">
        <ele>1240.24</ele>
        <time>2014-12-30T10:43:00Z</time>
      </trkpt>
      <trkpt lat="45.07055" lon="2.84195">
        <ele>1240.24</ele>
        <time>2014-12-30T10:43:03Z</time>
      </trkpt>
      <trkpt lat="45.07059" lon="2.84232">
        <ele>1239.28</ele>
        <time>2014-12-30T10:43:25Z</time>
      </trkpt>
      <trkpt lat="45.07066" lon="2.84274">
        <ele>1237.35</ele>
        <time>2014-12-30T10:43:51Z</time>
      </trkpt>
      <trkpt lat="45.0708" lon="2.84311">
        <ele>1238.32</ele>
        <time>2014-12-30T10:44:15Z</time>
      </trkpt>
      <trkpt lat="45.07086" lon="2.84329">
        <ele>1238.32</ele>
        <time>2014-12-30T10:44:27Z</time>
      </trkpt>
      <trkpt lat="45.07089" lon="2.84337">
        <ele>1238.32</ele>
        <time>2014-12-30T10:44:33Z</time>
      </trkpt>
      <trkpt lat="45.0709" lon="2.84341">
        <ele>1238.32</ele>
        <time>2014-12-30T10:44:36Z</time>
      </trkpt>
      <trkpt lat="45.07106" lon="2.84368">
        <ele>1238.8</ele>
        <time>2014-12-30T10:44:58Z</time>
      </trkpt>
      <trkpt lat="45.07129" lon="2.84387">
        <ele>1238.32</ele>
        <time>2014-12-30T10:45:19Z</time>
      </trkpt>
      <trkpt lat="45.07151" lon="2.84411">
        <ele>1237.35</ele>
        <time>2014-12-30T10:45:40Z</time>
      </trkpt>
      <trkpt lat="45.07167" lon="2.8443">
        <ele>1236.87</ele>
        <time>2014-12-30T10:45:56Z</time>
      </trkpt>
      <trkpt lat="45.07172" lon="2.84435">
        <ele>1236.39</ele>
        <time>2014-12-30T10:46:01Z</time>
      </trkpt>
      <trkpt lat="45.07189" lon="2.84459">
        <ele>1233.99</ele>
        <time>2014-12-30T10:46:22Z</time>
      </trkpt>
      <trkpt lat="45.07207" lon="2.8448">
        <ele>1233.99</ele>
        <time>2014-12-30T10:46:40Z</time>
      </trkpt>
      <trkpt lat="45.07223" lon="2.845">
        <ele>1233.51</ele>
        <time>2014-12-30T10:46:57Z</time>
      </trkpt>
      <trkpt lat="45.07245" lon="2.84522">
        <ele>1232.55</ele>
        <time>2014-12-30T10:47:19Z</time>
      </trkpt>
      <trkpt lat="45.07263" lon="2.8455">
        <ele>1232.55</ele>
        <time>2014-12-30T10:47:39Z</time>
      </trkpt>
      <trkpt lat="45.07281" lon="2.84577">
        <ele>1232.07</ele>
        <time>2014-12-30T10:47:59Z</time>
      </trkpt>
      <trkpt lat="45.07301" lon="2.84594">
        <ele>1232.07</ele>
        <time>2014-12-30T10:48:17Z</time>
      </trkpt>
      <trkpt lat="45.07305" lon="2.84599">
        <ele>1232.07</ele>
        <time>2014-12-30T10:48:21Z</time>
      </trkpt>
      <trkpt lat="45.0732" lon="2.84622">
        <ele>1232.07</ele>
        <time>2014-12-30T10:48:40Z</time>
      </trkpt>
      <trkpt lat="45.07334" lon="2.84642">
        <ele>1231.59</ele>
        <time>2014-12-30T10:48:56Z</time>
      </trkpt>
      <trkpt lat="45.07344" lon="2.84658">
        <ele>1231.11</ele>
        <time>2014-12-30T10:49:07Z</time>
      </trkpt>
      <trkpt lat="45.0736" lon="2.84678">
        <ele>1230.14</ele>
        <time>2014-12-30T10:49:24Z</time>
      </trkpt>
      <trkpt lat="45.07365" lon="2.84681">
        <ele>1230.14</ele>
        <time>2014-12-30T10:49:28Z</time>
      </trkpt>
      <trkpt lat="45.07386" lon="2.84706">
        <ele>1229.18</ele>
        <time>2014-12-30T10:49:49Z</time>
      </trkpt>
      <trkpt lat="45.07404" lon="2.84729">
        <ele>1230.14</ele>
        <time>2014-12-30T10:50:09Z</time>
      </trkpt>
      <trkpt lat="45.07424" lon="2.84748">
        <ele>1230.62</ele>
        <time>2014-12-30T10:50:30Z</time>
      </trkpt>
      <trkpt lat="45.07446" lon="2.84765">
        <ele>1229.66</ele>
        <time>2014-12-30T10:50:51Z</time>
      </trkpt>
      <trkpt lat="45.07469" lon="2.84786">
        <ele>1229.18</ele>
        <time>2014-12-30T10:51:12Z</time>
      </trkpt>
      <trkpt lat="45.07478" lon="2.848">
        <ele>1230.14</ele>
        <time>2014-12-30T10:51:26Z</time>
      </trkpt>
      <trkpt lat="45.07484" lon="2.84824">
        <ele>1233.03</ele>
        <time>2014-12-30T10:51:45Z</time>
      </trkpt>
      <trkpt lat="45.07493" lon="2.84845">
        <ele>1235.91</ele>
        <time>2014-12-30T10:52:06Z</time>
      </trkpt>
      <trkpt lat="45.07506" lon="2.84875">
        <ele>1236.87</ele>
        <time>2014-12-30T10:52:27Z</time>
      </trkpt>
      <trkpt lat="45.07517" lon="2.84908">
        <ele>1237.83</ele>
        <time>2014-12-30T10:52:48Z</time>
      </trkpt>
      <trkpt lat="45.07521" lon="2.8494">
        <ele>1239.76</ele>
        <time>2014-12-30T10:53:08Z</time>
      </trkpt>
      <trkpt lat="45.07522" lon="2.8495">
        <ele>1241.2</ele>
        <time>2014-12-30T10:53:15Z</time>
      </trkpt>
      <trkpt lat="45.07523" lon="2.84974">
        <ele>1242.64</ele>
        <time>2014-12-30T10:53:34Z</time>
      </trkpt>
      <trkpt lat="45.07526" lon="2.85002">
        <ele>1245.04</ele>
        <time>2014-12-30T10:53:55Z</time>
      </trkpt>
      <trkpt lat="45.07528" lon="2.85012">
        <ele>1245.04</ele>
        <time>2014-12-30T10:54:03Z</time>
      </trkpt>
      <trkpt lat="45.0754" lon="2.85045">
        <ele>1245.53</ele>
        <time>2014-12-30T10:54:26Z</time>
      </trkpt>
      <trkpt lat="45.07549" lon="2.85078">
        <ele>1246.97</ele>
        <time>2014-12-30T10:54:47Z</time>
      </trkpt>
      <trkpt lat="45.07554" lon="2.8511">
        <ele>1247.93</ele>
        <time>2014-12-30T10:55:08Z</time>
      </trkpt>
      <trkpt lat="45.07557" lon="2.85142">
        <ele>1248.89</ele>
        <time>2014-12-30T10:55:27Z</time>
      </trkpt>
      <trkpt lat="45.07567" lon="2.85177">
        <ele>1249.37</ele>
        <time>2014-12-30T10:55:50Z</time>
      </trkpt>
      <trkpt lat="45.07571" lon="2.85198">
        <ele>1249.85</ele>
        <time>2014-12-30T10:56:04Z</time>
      </trkpt>
      <trkpt lat="45.07575" lon="2.85216">
        <ele>1251.29</ele>
        <time>2014-12-30T10:56:15Z</time>
      </trkpt>
      <trkpt lat="45.07577" lon="2.85246">
        <ele>1253.22</ele>
        <time>2014-12-30T10:56:34Z</time>
      </trkpt>
      <trkpt lat="45.07574" lon="2.85272">
        <ele>1253.7</ele>
        <time>2014-12-30T10:56:49Z</time>
      </trkpt>
      <trkpt lat="45.07571" lon="2.85303">
        <ele>1253.7</ele>
        <time>2014-12-30T10:57:08Z</time>
      </trkpt>
      <trkpt lat="45.07569" lon="2.85317">
        <ele>1253.7</ele>
        <time>2014-12-30T10:57:16Z</time>
      </trkpt>
      <trkpt lat="45.07567" lon="2.85332">
        <ele>1254.18</ele>
        <time>2014-12-30T10:57:36Z</time>
      </trkpt>
      <trkpt lat="45.07567" lon="2.85352">
        <ele>1254.66</ele>
        <time>2014-12-30T10:57:48Z</time>
      </trkpt>
      <trkpt lat="45.07563" lon="2.85393">
        <ele>1254.66</ele>
        <time>2014-12-30T10:58:09Z</time>
      </trkpt>
      <trkpt lat="45.07553" lon="2.85433">
        <ele>1253.22</ele>
        <time>2014-12-30T10:58:33Z</time>
      </trkpt>
      <trkpt lat="45.07547" lon="2.85456">
        <ele>1252.25</ele>
        <time>2014-12-30T10:58:47Z</time>
      </trkpt>
      <trkpt lat="45.07544" lon="2.8547">
        <ele>1252.25</ele>
        <time>2014-12-30T10:58:54Z</time>
      </trkpt>
      <trkpt lat="45.07529" lon="2.85501">
        <ele>1250.81</ele>
        <time>2014-12-30T10:59:15Z</time>
      </trkpt>
      <trkpt lat="45.07528" lon="2.85501">
        <ele>1250.81</ele>
        <time>2014-12-30T10:59:16Z</time>
      </trkpt>
      <trkpt lat="45.07522" lon="2.85513">
        <ele>1249.85</ele>
        <time>2014-12-30T10:59:23Z</time>
      </trkpt>
      <trkpt lat="45.07515" lon="2.85527">
        <ele>1248.89</ele>
        <time>2014-12-30T10:59:31Z</time>
      </trkpt>
      <trkpt lat="45.07502" lon="2.85554">
        <ele>1247.45</ele>
        <time>2014-12-30T10:59:48Z</time>
      </trkpt>
      <trkpt lat="45.07487" lon="2.85581">
        <ele>1246.01</ele>
        <time>2014-12-30T11:00:07Z</time>
      </trkpt>
      <trkpt lat="45.07477" lon="2.85601">
        <ele>1245.53</ele>
        <time>2014-12-30T11:00:21Z</time>
      </trkpt>
      <trkpt lat="45.07472" lon="2.85617">
        <ele>1245.53</ele>
        <time>2014-12-30T11:00:29Z</time>
      </trkpt>
      <trkpt lat="45.07464" lon="2.85638">
        <ele>1246.49</ele>
        <time>2014-12-30T11:00:44Z</time>
      </trkpt>
      <trkpt lat="45.07457" lon="2.85653">
        <ele>1246.97</ele>
        <time>2014-12-30T11:00:55Z</time>
      </trkpt>
      <trkpt lat="45.07453" lon="2.85683">
        <ele>1248.41</ele>
        <time>2014-12-30T11:01:16Z</time>
      </trkpt>
      <trkpt lat="45.07454" lon="2.85689">
        <ele>1249.37</ele>
        <time>2014-12-30T11:01:20Z</time>
      </trkpt>
      <trkpt lat="45.07453" lon="2.85706">
        <ele>1250.33</ele>
        <time>2014-12-30T11:01:30Z</time>
      </trkpt>
      <trkpt lat="45.07453" lon="2.85711">
        <ele>1250.33</ele>
        <time>2014-12-30T11:01:34Z</time>
      </trkpt>
      <trkpt lat="45.07453" lon="2.8573">
        <ele>1251.29</ele>
        <time>2014-12-30T11:01:46Z</time>
      </trkpt>
      <trkpt lat="45.07449" lon="2.85762">
        <ele>1253.22</ele>
        <time>2014-12-30T11:02:06Z</time>
      </trkpt>
      <trkpt lat="45.07448" lon="2.85767">
        <ele>1253.7</ele>
        <time>2014-12-30T11:02:10Z</time>
      </trkpt>
      <trkpt lat="45.07436" lon="2.85789">
        <ele>1256.1</ele>
        <time>2014-12-30T11:02:29Z</time>
      </trkpt>
      <trkpt lat="45.07416" lon="2.85807">
        <ele>1256.58</ele>
        <time>2014-12-30T11:02:49Z</time>
      </trkpt>
      <trkpt lat="45.07398" lon="2.85833">
        <ele>1257.54</ele>
        <time>2014-12-30T11:03:10Z</time>
      </trkpt>
      <trkpt lat="45.07386" lon="2.85857">
        <ele>1258.02</ele>
        <time>2014-12-30T11:03:27Z</time>
      </trkpt>
      <trkpt lat="45.07384" lon="2.8586">
        <ele>1258.02</ele>
        <time>2014-12-30T11:03:30Z</time>
      </trkpt>
      <trkpt lat="45.07377" lon="2.85874">
        <ele>1257.54</ele>
        <time>2014-12-30T11:03:47Z</time>
      </trkpt>
      <trkpt lat="45.07377" lon="2.85883">
        <ele>1257.54</ele>
        <time>2014-12-30T11:03:52Z</time>
      </trkpt>
      <trkpt lat="45.07382" lon="2.85904">
        <ele>1257.54</ele>
        <time>2014-12-30T11:04:06Z</time>
      </trkpt>
      <trkpt lat="45.07383" lon="2.8592">
        <ele>1257.06</ele>
        <time>2014-12-30T11:04:16Z</time>
      </trkpt>
      <trkpt lat="45.07384" lon="2.85927">
        <ele>1257.54</ele>
        <time>2014-12-30T11:04:20Z</time>
      </trkpt>
      <trkpt lat="45.07382" lon="2.8594">
        <ele>1257.54</ele>
        <time>2014-12-30T11:04:29Z</time>
      </trkpt>
      <trkpt lat="45.07384" lon="2.85946">
        <ele>1257.54</ele>
        <time>2014-12-30T11:04:33Z</time>
      </trkpt>
      <trkpt lat="45.07385" lon="2.8595">
        <ele>1257.06</ele>
        <time>2014-12-30T11:04:36Z</time>
      </trkpt>
      <trkpt lat="45.07387" lon="2.8596">
        <ele>1257.06</ele>
        <time>2014-12-30T11:04:42Z</time>
      </trkpt>
      <trkpt lat="45.07399" lon="2.85998">
        <ele>1256.58</ele>
        <time>2014-12-30T11:05:05Z</time>
      </trkpt>
      <trkpt lat="45.07407" lon="2.86024">
        <ele>1255.62</ele>
        <time>2014-12-30T11:05:23Z</time>
      </trkpt>
      <trkpt lat="45.07411" lon="2.86039">
        <ele>1255.62</ele>
        <time>2014-12-30T11:05:31Z</time>
      </trkpt>
      <trkpt lat="45.0742" lon="2.86079">
        <ele>1254.18</ele>
        <time>2014-12-30T11:05:55Z</time>
      </trkpt>
      <trkpt lat="45.07427" lon="2.86112">
        <ele>1253.7</ele>
        <time>2014-12-30T11:06:14Z</time>
      </trkpt>
      <trkpt lat="45.07429" lon="2.86128">
        <ele>1253.22</ele>
        <time>2014-12-30T11:06:23Z</time>
      </trkpt>
      <trkpt lat="45.07425" lon="2.86167">
        <ele>1253.22</ele>
        <time>2014-12-30T11:06:44Z</time>
      </trkpt>
      <trkpt lat="45.0742" lon="2.862">
        <ele>1253.22</ele>
        <time>2014-12-30T11:07:04Z</time>
      </trkpt>
      <trkpt lat="45.07417" lon="2.86223">
        <ele>1253.7</ele>
        <time>2014-12-30T11:07:18Z</time>
      </trkpt>
      <trkpt lat="45.07415" lon="2.86258">
        <ele>1255.14</ele>
        <time>2014-12-30T11:07:41Z</time>
      </trkpt>
      <trkpt lat="45.07418" lon="2.86295">
        <ele>1257.06</ele>
        <time>2014-12-30T11:08:02Z</time>
      </trkpt>
      <trkpt lat="45.07426" lon="2.86318">
        <ele>1257.06</ele>
        <time>2014-12-30T11:08:16Z</time>
      </trkpt>
      <trkpt lat="45.07428" lon="2.86324">
        <ele>1257.06</ele>
        <time>2014-12-30T11:08:20Z</time>
      </trkpt>
      <trkpt lat="45.07429" lon="2.8633">
        <ele>1257.06</ele>
        <time>2014-12-30T11:08:24Z</time>
      </trkpt>
      <trkpt lat="45.07432" lon="2.86335">
        <ele>1257.54</ele>
        <time>2014-12-30T11:08:28Z</time>
      </trkpt>
      <trkpt lat="45.07433" lon="2.86341">
        <ele>1257.54</ele>
        <time>2014-12-30T11:08:32Z</time>
      </trkpt>
      <trkpt lat="45.07444" lon="2.86365">
        <ele>1257.06</ele>
        <time>2014-12-30T11:08:50Z</time>
      </trkpt>
      <trkpt lat="45.07446" lon="2.86375">
        <ele>1257.06</ele>
        <time>2014-12-30T11:08:56Z</time>
      </trkpt>
      <trkpt lat="45.07446" lon="2.86378">
        <ele>1257.06</ele>
        <time>2014-12-30T11:08:58Z</time>
      </trkpt>
      <trkpt lat="45.07446" lon="2.86391">
        <ele>1257.54</ele>
        <time>2014-12-30T11:09:06Z</time>
      </trkpt>
      <trkpt lat="45.07443" lon="2.86414">
        <ele>1258.5</ele>
        <time>2014-12-30T11:09:20Z</time>
      </trkpt>
      <trkpt lat="45.07441" lon="2.86423">
        <ele>1259.46</ele>
        <time>2014-12-30T11:09:26Z</time>
      </trkpt>
      <trkpt lat="45.07441" lon="2.86426">
        <ele>1259.46</ele>
        <time>2014-12-30T11:09:28Z</time>
      </trkpt>
      <trkpt lat="45.07438" lon="2.86451">
        <ele>1258.02</ele>
        <time>2014-12-30T11:09:47Z</time>
      </trkpt>
      <trkpt lat="45.0744" lon="2.86482">
        <ele>1257.54</ele>
        <time>2014-12-30T11:10:06Z</time>
      </trkpt>
      <trkpt lat="45.0744" lon="2.86484">
        <ele>1257.54</ele>
        <time>2014-12-30T11:10:17Z</time>
      </trkpt>
      <trkpt lat="45.07439" lon="2.8649">
        <ele>1257.06</ele>
        <time>2014-12-30T11:10:22Z</time>
      </trkpt>
      <trkpt lat="45.07436" lon="2.86494">
        <ele>1257.06</ele>
        <time>2014-12-30T11:10:43Z</time>
      </trkpt>
      <trkpt lat="45.07437" lon="2.86495">
        <ele>1257.06</ele>
        <time>2014-12-30T11:11:09Z</time>
      </trkpt>
      <trkpt lat="45.07437" lon="2.86494">
        <ele>1257.06</ele>
        <time>2014-12-30T11:11:13Z</time>
      </trkpt>
      <trkpt lat="45.07437" lon="2.86491">
        <ele>1256.1</ele>
        <time>2014-12-30T11:11:30Z</time>
      </trkpt>
      <trkpt lat="45.07436" lon="2.86489">
        <ele>1256.58</ele>
        <time>2014-12-30T11:11:46Z</time>
      </trkpt>
      <trkpt lat="45.07437" lon="2.86489">
        <ele>1257.06</ele>
        <time>2014-12-30T11:12:08Z</time>
      </trkpt>
      <trkpt lat="45.07437" lon="2.86489">
        <ele>1257.06</ele>
        <time>2014-12-30T11:12:34Z</time>
      </trkpt>
      <trkpt lat="45.07437" lon="2.86489">
        <ele>1257.06</ele>
        <time>2014-12-30T11:13:00Z</time>
      </trkpt>
      <trkpt lat="45.07437" lon="2.86488">
        <ele>1260.43</ele>
        <time>2014-12-30T11:13:17Z</time>
      </trkpt>
      <trkpt lat="45.07437" lon="2.86489">
        <ele>1255.62</ele>
        <time>2014-12-30T11:13:18Z</time>
      </trkpt>
      <trkpt lat="45.07437" lon="2.86488">
        <ele>1259.46</ele>
        <time>2014-12-30T11:13:22Z</time>
      </trkpt>
      <trkpt lat="45.07437" lon="2.86488">
        <ele>1256.1</ele>
        <time>2014-12-30T11:13:27Z</time>
      </trkpt>
      <trkpt lat="45.07437" lon="2.86488">
        <ele>1259.46</ele>
        <time>2014-12-30T11:13:29Z</time>
      </trkpt>
      <trkpt lat="45.07437" lon="2.86488">
        <ele>1257.06</ele>
        <time>2014-12-30T11:13:51Z</time>
      </trkpt>
      <trkpt lat="45.07439" lon="2.86488">
        <ele>1257.06</ele>
        <time>2014-12-30T11:14:16Z</time>
      </trkpt>
      <trkpt lat="45.07443" lon="2.86498">
        <ele>1256.58</ele>
        <time>2014-12-30T11:14:23Z</time>
      </trkpt>
      <trkpt lat="45.07449" lon="2.8651">
        <ele>1255.62</ele>
        <time>2014-12-30T11:14:32Z</time>
      </trkpt>
      <trkpt lat="45.07451" lon="2.86512">
        <ele>1255.14</ele>
        <time>2014-12-30T11:14:34Z</time>
      </trkpt>
      <trkpt lat="45.07458" lon="2.86524">
        <ele>1255.14</ele>
        <time>2014-12-30T11:14:42Z</time>
      </trkpt>
      <trkpt lat="45.07463" lon="2.86536">
        <ele>1253.7</ele>
        <time>2014-12-30T11:14:49Z</time>
      </trkpt>
      <trkpt lat="45.07468" lon="2.8655">
        <ele>1253.22</ele>
        <time>2014-12-30T11:14:58Z</time>
      </trkpt>
      <trkpt lat="45.07474" lon="2.8657">
        <ele>1252.74</ele>
        <time>2014-12-30T11:15:09Z</time>
      </trkpt>
      <trkpt lat="45.07475" lon="2.86576">
        <ele>1252.74</ele>
        <time>2014-12-30T11:15:12Z</time>
      </trkpt>
      <trkpt lat="45.07478" lon="2.86584">
        <ele>1252.74</ele>
        <time>2014-12-30T11:15:19Z</time>
      </trkpt>
      <trkpt lat="45.0748" lon="2.86599">
        <ele>1252.25</ele>
        <time>2014-12-30T11:15:28Z</time>
      </trkpt>
      <trkpt lat="45.07462" lon="2.8661">
        <ele>1250.81</ele>
        <time>2014-12-30T11:15:50Z</time>
      </trkpt>
      <trkpt lat="45.07451" lon="2.86604">
        <ele>1250.81</ele>
        <time>2014-12-30T11:16:02Z</time>
      </trkpt>
      <trkpt lat="45.0743" lon="2.86593">
        <ele>1250.81</ele>
        <time>2014-12-30T11:16:18Z</time>
      </trkpt>
      <trkpt lat="45.07414" lon="2.86587">
        <ele>1251.29</ele>
        <time>2014-12-30T11:16:31Z</time>
      </trkpt>
      <trkpt lat="45.0741" lon="2.86584">
        <ele>1251.29</ele>
        <time>2014-12-30T11:16:35Z</time>
      </trkpt>
      <trkpt lat="45.07388" lon="2.86573">
        <ele>1251.77</ele>
        <time>2014-12-30T11:16:52Z</time>
      </trkpt>
      <trkpt lat="45.07375" lon="2.86573">
        <ele>1252.74</ele>
        <time>2014-12-30T11:17:10Z</time>
      </trkpt>
      <trkpt lat="45.0736" lon="2.86569">
        <ele>1255.14</ele>
        <time>2014-12-30T11:17:27Z</time>
      </trkpt>
      <trkpt lat="45.07342" lon="2.86561">
        <ele>1256.58</ele>
        <time>2014-12-30T11:17:46Z</time>
      </trkpt>
      <trkpt lat="45.07339" lon="2.86559">
        <ele>1257.06</ele>
        <time>2014-12-30T11:17:48Z</time>
      </trkpt>
      <trkpt lat="45.07318" lon="2.86543">
        <ele>1258.5</ele>
        <time>2014-12-30T11:18:09Z</time>
      </trkpt>
      <trkpt lat="45.073" lon="2.86525">
        <ele>1259.46</ele>
        <time>2014-12-30T11:18:27Z</time>
      </trkpt>
      <trkpt lat="45.07284" lon="2.86502">
        <ele>1259.94</ele>
        <time>2014-12-30T11:18:47Z</time>
      </trkpt>
      <trkpt lat="45.07268" lon="2.8648">
        <ele>1260.91</ele>
        <time>2014-12-30T11:19:04Z</time>
      </trkpt>
      <trkpt lat="45.07254" lon="2.86462">
        <ele>1260.91</ele>
        <time>2014-12-30T11:19:19Z</time>
      </trkpt>
      <trkpt lat="45.07235" lon="2.86434">
        <ele>1261.87</ele>
        <time>2014-12-30T11:19:40Z</time>
      </trkpt>
      <trkpt lat="45.07219" lon="2.86411">
        <ele>1262.35</ele>
        <time>2014-12-30T11:20:00Z</time>
      </trkpt>
      <trkpt lat="45.07202" lon="2.86382">
        <ele>1262.83</ele>
        <time>2014-12-30T11:20:19Z</time>
      </trkpt>
      <trkpt lat="45.07189" lon="2.86363">
        <ele>1263.79</ele>
        <time>2014-12-30T11:20:37Z</time>
      </trkpt>
      <trkpt lat="45.07175" lon="2.86338">
        <ele>1263.79</ele>
        <time>2014-12-30T11:20:55Z</time>
      </trkpt>
      <trkpt lat="45.07158" lon="2.86317">
        <ele>1264.27</ele>
        <time>2014-12-30T11:21:13Z</time>
      </trkpt>
      <trkpt lat="45.07144" lon="2.86297">
        <ele>1264.27</ele>
        <time>2014-12-30T11:21:32Z</time>
      </trkpt>
      <trkpt lat="45.07134" lon="2.86282">
        <ele>1265.71</ele>
        <time>2014-12-30T11:21:51Z</time>
      </trkpt>
      <trkpt lat="45.0712" lon="2.86267">
        <ele>1267.16</ele>
        <time>2014-12-30T11:22:11Z</time>
      </trkpt>
      <trkpt lat="45.07115" lon="2.86268">
        <ele>1267.16</ele>
        <time>2014-12-30T11:22:16Z</time>
      </trkpt>
      <trkpt lat="45.07114" lon="2.86273">
        <ele>1267.64</ele>
        <time>2014-12-30T11:22:25Z</time>
      </trkpt>
      <trkpt lat="45.07115" lon="2.86277">
        <ele>1267.64</ele>
        <time>2014-12-30T11:22:27Z</time>
      </trkpt>
      <trkpt lat="45.07132" lon="2.86309">
        <ele>1267.16</ele>
        <time>2014-12-30T11:22:49Z</time>
      </trkpt>
      <trkpt lat="45.07138" lon="2.86324">
        <ele>1267.16</ele>
        <time>2014-12-30T11:22:58Z</time>
      </trkpt>
      <trkpt lat="45.0714" lon="2.86326">
        <ele>1266.67</ele>
        <time>2014-12-30T11:23:01Z</time>
      </trkpt>
      <trkpt lat="45.07142" lon="2.86333">
        <ele>1267.16</ele>
        <time>2014-12-30T11:23:05Z</time>
      </trkpt>
      <trkpt lat="45.07145" lon="2.8635">
        <ele>1266.67</ele>
        <time>2014-12-30T11:23:15Z</time>
      </trkpt>
      <trkpt lat="45.07144" lon="2.86358">
        <ele>1266.67</ele>
        <time>2014-12-30T11:23:19Z</time>
      </trkpt>
      <trkpt lat="45.07143" lon="2.86363">
        <ele>1267.16</ele>
        <time>2014-12-30T11:23:23Z</time>
      </trkpt>
      <trkpt lat="45.07124" lon="2.86382">
        <ele>1268.12</ele>
        <time>2014-12-30T11:23:43Z</time>
      </trkpt>
      <trkpt lat="45.071" lon="2.86401">
        <ele>1269.08</ele>
        <time>2014-12-30T11:24:04Z</time>
      </trkpt>
      <trkpt lat="45.07077" lon="2.86424">
        <ele>1269.08</ele>
        <time>2014-12-30T11:24:26Z</time>
      </trkpt>
      <trkpt lat="45.07057" lon="2.86445">
        <ele>1268.6</ele>
        <time>2014-12-30T11:24:45Z</time>
      </trkpt>
      <trkpt lat="45.07041" lon="2.86458">
        <ele>1267.16</ele>
        <time>2014-12-30T11:24:59Z</time>
      </trkpt>
      <trkpt lat="45.07017" lon="2.86479">
        <ele>1265.71</ele>
        <time>2014-12-30T11:25:21Z</time>
      </trkpt>
      <trkpt lat="45.07008" lon="2.86486">
        <ele>1265.71</ele>
        <time>2014-12-30T11:25:28Z</time>
      </trkpt>
      <trkpt lat="45.06981" lon="2.8651">
        <ele>1263.31</ele>
        <time>2014-12-30T11:25:51Z</time>
      </trkpt>
      <trkpt lat="45.06956" lon="2.86533">
        <ele>1263.31</ele>
        <time>2014-12-30T11:26:12Z</time>
      </trkpt>
      <trkpt lat="45.06929" lon="2.86556">
        <ele>1263.31</ele>
        <time>2014-12-30T11:26:35Z</time>
      </trkpt>
      <trkpt lat="45.06905" lon="2.86574">
        <ele>1262.35</ele>
        <time>2014-12-30T11:26:55Z</time>
      </trkpt>
      <trkpt lat="45.0688" lon="2.86595">
        <ele>1260.91</ele>
        <time>2014-12-30T11:27:16Z</time>
      </trkpt>
      <trkpt lat="45.06867" lon="2.86609">
        <ele>1259.46</ele>
        <time>2014-12-30T11:27:28Z</time>
      </trkpt>
      <trkpt lat="45.06854" lon="2.86614">
        <ele>1258.5</ele>
        <time>2014-12-30T11:27:38Z</time>
      </trkpt>
      <trkpt lat="45.06829" lon="2.86608">
        <ele>1256.1</ele>
        <time>2014-12-30T11:27:58Z</time>
      </trkpt>
      <trkpt lat="45.06825" lon="2.86604">
        <ele>1255.14</ele>
        <time>2014-12-30T11:28:02Z</time>
      </trkpt>
      <trkpt lat="45.068" lon="2.86595">
        <ele>1252.25</ele>
        <time>2014-12-30T11:28:22Z</time>
      </trkpt>
      <trkpt lat="45.06779" lon="2.86626">
        <ele>1252.74</ele>
        <time>2014-12-30T11:28:45Z</time>
      </trkpt>
      <trkpt lat="45.06771" lon="2.86651">
        <ele>1253.7</ele>
        <time>2014-12-30T11:29:03Z</time>
      </trkpt>
      <trkpt lat="45.06773" lon="2.86655">
        <ele>1253.22</ele>
        <time>2014-12-30T11:29:23Z</time>
      </trkpt>
      <trkpt lat="45.06782" lon="2.86683">
        <ele>1250.81</ele>
        <time>2014-12-30T11:29:41Z</time>
      </trkpt>
      <trkpt lat="45.06791" lon="2.8672">
        <ele>1247.45</ele>
        <time>2014-12-30T11:30:03Z</time>
      </trkpt>
      <trkpt lat="45.06791" lon="2.86752">
        <ele>1246.01</ele>
        <time>2014-12-30T11:30:21Z</time>
      </trkpt>
      <trkpt lat="45.0679" lon="2.86768">
        <ele>1244.56</ele>
        <time>2014-12-30T11:30:29Z</time>
      </trkpt>
      <trkpt lat="45.06782" lon="2.86809">
        <ele>1243.12</ele>
        <time>2014-12-30T11:30:52Z</time>
      </trkpt>
      <trkpt lat="45.06772" lon="2.8684">
        <ele>1242.64</ele>
        <time>2014-12-30T11:31:14Z</time>
      </trkpt>
      <trkpt lat="45.06766" lon="2.86848">
        <ele>1242.16</ele>
        <time>2014-12-30T11:31:22Z</time>
      </trkpt>
      <trkpt lat="45.06764" lon="2.8685">
        <ele>1242.16</ele>
        <time>2014-12-30T11:31:25Z</time>
      </trkpt>
      <trkpt lat="45.06763" lon="2.86852">
        <ele>1241.68</ele>
        <time>2014-12-30T11:31:27Z</time>
      </trkpt>
      <trkpt lat="45.06742" lon="2.86874">
        <ele>1240.24</ele>
        <time>2014-12-30T11:31:49Z</time>
      </trkpt>
      <trkpt lat="45.06722" lon="2.86893">
        <ele>1237.83</ele>
        <time>2014-12-30T11:32:13Z</time>
      </trkpt>
      <trkpt lat="45.06722" lon="2.86891">
        <ele>1238.32</ele>
        <time>2014-12-30T11:32:43Z</time>
      </trkpt>
      <trkpt lat="45.06723" lon="2.86891">
        <ele>1237.83</ele>
        <time>2014-12-30T11:33:03Z</time>
      </trkpt>
      <trkpt lat="45.06713" lon="2.86904">
        <ele>1235.91</ele>
        <time>2014-12-30T11:33:16Z</time>
      </trkpt>
      <trkpt lat="45.0671" lon="2.86906">
        <ele>1235.91</ele>
        <time>2014-12-30T11:33:20Z</time>
      </trkpt>
      <trkpt lat="45.06704" lon="2.86909">
        <ele>1235.91</ele>
        <time>2014-12-30T11:33:27Z</time>
      </trkpt>
      <trkpt lat="45.067" lon="2.86911">
        <ele>1235.43</ele>
        <time>2014-12-30T11:33:32Z</time>
      </trkpt>
      <trkpt lat="45.06693" lon="2.86923">
        <ele>1234.47</ele>
        <time>2014-12-30T11:33:51Z</time>
      </trkpt>
      <trkpt lat="45.06678" lon="2.86931">
        <ele>1232.55</ele>
        <time>2014-12-30T11:34:08Z</time>
      </trkpt>
      <trkpt lat="45.06674" lon="2.86935">
        <ele>1231.59</ele>
        <time>2014-12-30T11:34:15Z</time>
      </trkpt>
      <trkpt lat="45.06672" lon="2.86939">
        <ele>1231.59</ele>
        <time>2014-12-30T11:34:18Z</time>
      </trkpt>
      <trkpt lat="45.06663" lon="2.86942">
        <ele>1231.11</ele>
        <time>2014-12-30T11:34:27Z</time>
      </trkpt>
      <trkpt lat="45.06657" lon="2.86956">
        <ele>1230.62</ele>
        <time>2014-12-30T11:34:46Z</time>
      </trkpt>
      <trkpt lat="45.06656" lon="2.86955">
        <ele>1231.59</ele>
        <time>2014-12-30T11:35:08Z</time>
      </trkpt>
      <trkpt lat="45.06656" lon="2.86953">
        <ele>1231.59</ele>
        <time>2014-12-30T11:35:32Z</time>
      </trkpt>
      <trkpt lat="45.06657" lon="2.86955">
        <ele>1231.11</ele>
        <time>2014-12-30T11:35:55Z</time>
      </trkpt>
      <trkpt lat="45.06656" lon="2.86958">
        <ele>1231.59</ele>
        <time>2014-12-30T11:36:12Z</time>
      </trkpt>
      <trkpt lat="45.06657" lon="2.86958">
        <ele>1231.11</ele>
        <time>2014-12-30T11:36:33Z</time>
      </trkpt>
      <trkpt lat="45.06657" lon="2.86958">
        <ele>1231.11</ele>
        <time>2014-12-30T11:36:59Z</time>
      </trkpt>
      <trkpt lat="45.06656" lon="2.86957">
        <ele>1232.55</ele>
        <time>2014-12-30T11:37:22Z</time>
      </trkpt>
      <trkpt lat="45.06656" lon="2.86958">
        <ele>1231.11</ele>
        <time>2014-12-30T11:37:35Z</time>
      </trkpt>
      <trkpt lat="45.06657" lon="2.86959">
        <ele>1233.03</ele>
        <time>2014-12-30T11:55:17Z</time>
      </trkpt>
      <trkpt lat="45.06658" lon="2.8696">
        <ele>1232.55</ele>
        <time>2014-12-30T11:55:18Z</time>
      </trkpt>
      <trkpt lat="45.06656" lon="2.86957">
        <ele>1233.03</ele>
        <time>2014-12-30T11:55:47Z</time>
      </trkpt>
      <trkpt lat="45.06656" lon="2.86957">
        <ele>1244.56</ele>
        <time>2014-12-30T11:55:56Z</time>
      </trkpt>
      <trkpt lat="45.06656" lon="2.86957">
        <ele>1233.03</ele>
        <time>2014-12-30T11:55:57Z</time>
      </trkpt>
      <trkpt lat="45.06657" lon="2.86957">
        <ele>1226.78</ele>
        <time>2014-12-30T11:56:06Z</time>
      </trkpt>
      <trkpt lat="45.06657" lon="2.86956">
        <ele>1233.03</ele>
        <time>2014-12-30T11:56:07Z</time>
      </trkpt>
      <trkpt lat="45.06658" lon="2.86958">
        <ele>1233.51</ele>
        <time>2014-12-30T11:56:31Z</time>
      </trkpt>
      <trkpt lat="45.06659" lon="2.86957">
        <ele>1233.03</ele>
        <time>2014-12-30T11:56:50Z</time>
      </trkpt>
      <trkpt lat="45.06659" lon="2.8695">
        <ele>1233.51</ele>
        <time>2014-12-30T11:57:02Z</time>
      </trkpt>
      <trkpt lat="45.06663" lon="2.86944">
        <ele>1233.51</ele>
        <time>2014-12-30T11:57:09Z</time>
      </trkpt>
      <trkpt lat="45.0668" lon="2.86928">
        <ele>1235.91</ele>
        <time>2014-12-30T11:57:26Z</time>
      </trkpt>
      <trkpt lat="45.06687" lon="2.86923">
        <ele>1236.39</ele>
        <time>2014-12-30T11:57:34Z</time>
      </trkpt>
      <trkpt lat="45.06698" lon="2.8691">
        <ele>1236.39</ele>
        <time>2014-12-30T11:57:50Z</time>
      </trkpt>
      <trkpt lat="45.06704" lon="2.86906">
        <ele>1236.87</ele>
        <time>2014-12-30T11:57:56Z</time>
      </trkpt>
      <trkpt lat="45.06722" lon="2.86896">
        <ele>1238.8</ele>
        <time>2014-12-30T11:58:15Z</time>
      </trkpt>
      <trkpt lat="45.06741" lon="2.86876">
        <ele>1241.2</ele>
        <time>2014-12-30T11:58:36Z</time>
      </trkpt>
      <trkpt lat="45.0676" lon="2.86856">
        <ele>1243.12</ele>
        <time>2014-12-30T11:58:58Z</time>
      </trkpt>
      <trkpt lat="45.06772" lon="2.86838">
        <ele>1244.08</ele>
        <time>2014-12-30T11:59:18Z</time>
      </trkpt>
      <trkpt lat="45.06777" lon="2.86827">
        <ele>1244.56</ele>
        <time>2014-12-30T11:59:29Z</time>
      </trkpt>
      <trkpt lat="45.06779" lon="2.86823">
        <ele>1244.56</ele>
        <time>2014-12-30T11:59:33Z</time>
      </trkpt>
      <trkpt lat="45.06785" lon="2.86795">
        <ele>1245.04</ele>
        <time>2014-12-30T11:59:53Z</time>
      </trkpt>
      <trkpt lat="45.0679" lon="2.86766">
        <ele>1246.49</ele>
        <time>2014-12-30T12:00:13Z</time>
      </trkpt>
      <trkpt lat="45.06792" lon="2.8674">
        <ele>1247.93</ele>
        <time>2014-12-30T12:00:30Z</time>
      </trkpt>
      <trkpt lat="45.06789" lon="2.86711">
        <ele>1249.37</ele>
        <time>2014-12-30T12:00:50Z</time>
      </trkpt>
      <trkpt lat="45.0678" lon="2.86674">
        <ele>1252.25</ele>
        <time>2014-12-30T12:01:15Z</time>
      </trkpt>
      <trkpt lat="45.06769" lon="2.86643">
        <ele>1254.18</ele>
        <time>2014-12-30T12:01:37Z</time>
      </trkpt>
      <trkpt lat="45.0676" lon="2.86615">
        <ele>1256.1</ele>
        <time>2014-12-30T12:01:58Z</time>
      </trkpt>
      <trkpt lat="45.06751" lon="2.86577">
        <ele>1258.98</ele>
        <time>2014-12-30T12:02:23Z</time>
      </trkpt>
      <trkpt lat="45.06743" lon="2.8654">
        <ele>1260.91</ele>
        <time>2014-12-30T12:02:48Z</time>
      </trkpt>
      <trkpt lat="45.06736" lon="2.86494">
        <ele>1262.83</ele>
        <time>2014-12-30T12:03:15Z</time>
      </trkpt>
      <trkpt lat="45.06732" lon="2.86455">
        <ele>1263.31</ele>
        <time>2014-12-30T12:03:38Z</time>
      </trkpt>
      <trkpt lat="45.06731" lon="2.86453">
        <ele>1263.31</ele>
        <time>2014-12-30T12:03:39Z</time>
      </trkpt>
      <trkpt lat="45.0673" lon="2.86445">
        <ele>1263.79</ele>
        <time>2014-12-30T12:03:44Z</time>
      </trkpt>
      <trkpt lat="45.06722" lon="2.86402">
        <ele>1264.75</ele>
        <time>2014-12-30T12:04:08Z</time>
      </trkpt>
      <trkpt lat="45.06717" lon="2.86366">
        <ele>1266.67</ele>
        <time>2014-12-30T12:04:29Z</time>
      </trkpt>
      <trkpt lat="45.06711" lon="2.86321">
        <ele>1269.56</ele>
        <time>2014-12-30T12:04:55Z</time>
      </trkpt>
      <trkpt lat="45.06703" lon="2.86277">
        <ele>1271.48</ele>
        <time>2014-12-30T12:05:21Z</time>
      </trkpt>
      <trkpt lat="45.06701" lon="2.86261">
        <ele>1270.04</ele>
        <time>2014-12-30T12:05:31Z</time>
      </trkpt>
      <trkpt lat="45.06703" lon="2.8624">
        <ele>1268.6</ele>
        <time>2014-12-30T12:05:42Z</time>
      </trkpt>
      <trkpt lat="45.06703" lon="2.86194">
        <ele>1268.12</ele>
        <time>2014-12-30T12:06:07Z</time>
      </trkpt>
      <trkpt lat="45.06702" lon="2.86146">
        <ele>1268.12</ele>
        <time>2014-12-30T12:06:34Z</time>
      </trkpt>
      <trkpt lat="45.067" lon="2.86096">
        <ele>1269.08</ele>
        <time>2014-12-30T12:07:01Z</time>
      </trkpt>
      <trkpt lat="45.06699" lon="2.86061">
        <ele>1270.04</ele>
        <time>2014-12-30T12:07:23Z</time>
      </trkpt>
      <trkpt lat="45.06699" lon="2.86056">
        <ele>1270.04</ele>
        <time>2014-12-30T12:07:41Z</time>
      </trkpt>
      <trkpt lat="45.06699" lon="2.86054">
        <ele>1268.6</ele>
        <time>2014-12-30T12:08:01Z</time>
      </trkpt>
      <trkpt lat="45.06695" lon="2.86047">
        <ele>1269.56</ele>
        <time>2014-12-30T12:08:20Z</time>
      </trkpt>
      <trkpt lat="45.06695" lon="2.86046">
        <ele>1269.56</ele>
        <time>2014-12-30T12:08:55Z</time>
      </trkpt>
      <trkpt lat="45.06696" lon="2.86047">
        <ele>1269.56</ele>
        <time>2014-12-30T12:09:22Z</time>
      </trkpt>
      <trkpt lat="45.06696" lon="2.86048">
        <ele>1269.56</ele>
        <time>2014-12-30T12:10:05Z</time>
      </trkpt>
      <trkpt lat="45.06697" lon="2.86048">
        <ele>1269.56</ele>
        <time>2014-12-30T12:10:28Z</time>
      </trkpt>
      <trkpt lat="45.06696" lon="2.86047">
        <ele>1269.56</ele>
        <time>2014-12-30T12:10:45Z</time>
      </trkpt>
      <trkpt lat="45.06693" lon="2.8604">
        <ele>1269.56</ele>
        <time>2014-12-30T12:10:51Z</time>
      </trkpt>
      <trkpt lat="45.06669" lon="2.86007">
        <ele>1270.04</ele>
        <time>2014-12-30T12:11:15Z</time>
      </trkpt>
      <trkpt lat="45.06651" lon="2.85979">
        <ele>1269.56</ele>
        <time>2014-12-30T12:11:35Z</time>
      </trkpt>
      <trkpt lat="45.0663" lon="2.85943">
        <ele>1270.52</ele>
        <time>2014-12-30T12:11:58Z</time>
      </trkpt>
      <trkpt lat="45.06611" lon="2.85913">
        <ele>1272.44</ele>
        <time>2014-12-30T12:12:20Z</time>
      </trkpt>
      <trkpt lat="45.06593" lon="2.85873">
        <ele>1273.4</ele>
        <time>2014-12-30T12:12:44Z</time>
      </trkpt>
      <trkpt lat="45.06579" lon="2.85829">
        <ele>1273.4</ele>
        <time>2014-12-30T12:13:08Z</time>
      </trkpt>
      <trkpt lat="45.06565" lon="2.85791">
        <ele>1273.4</ele>
        <time>2014-12-30T12:13:30Z</time>
      </trkpt>
      <trkpt lat="45.06552" lon="2.8575">
        <ele>1274.36</ele>
        <time>2014-12-30T12:13:53Z</time>
      </trkpt>
      <trkpt lat="45.06543" lon="2.85708">
        <ele>1275.81</ele>
        <time>2014-12-30T12:14:16Z</time>
      </trkpt>
      <trkpt lat="45.06532" lon="2.85661">
        <ele>1276.77</ele>
        <time>2014-12-30T12:14:43Z</time>
      </trkpt>
      <trkpt lat="45.0653" lon="2.85635">
        <ele>1278.69</ele>
        <time>2014-12-30T12:14:58Z</time>
      </trkpt>
      <trkpt lat="45.06521" lon="2.85608">
        <ele>1281.57</ele>
        <time>2014-12-30T12:15:16Z</time>
      </trkpt>
      <trkpt lat="45.06509" lon="2.85572">
        <ele>1282.06</ele>
        <time>2014-12-30T12:15:38Z</time>
      </trkpt>
      <trkpt lat="45.06493" lon="2.85534">
        <ele>1280.13</ele>
        <time>2014-12-30T12:16:02Z</time>
      </trkpt>
      <trkpt lat="45.06476" lon="2.85499">
        <ele>1278.69</ele>
        <time>2014-12-30T12:16:24Z</time>
      </trkpt>
      <trkpt lat="45.06456" lon="2.85472">
        <ele>1278.69</ele>
        <time>2014-12-30T12:16:46Z</time>
      </trkpt>
      <trkpt lat="45.06431" lon="2.85451">
        <ele>1280.13</ele>
        <time>2014-12-30T12:17:08Z</time>
      </trkpt>
      <trkpt lat="45.06412" lon="2.85422">
        <ele>1283.5</ele>
        <time>2014-12-30T12:17:31Z</time>
      </trkpt>
      <trkpt lat="45.06406" lon="2.85392">
        <ele>1285.42</ele>
        <time>2014-12-30T12:17:52Z</time>
      </trkpt>
      <trkpt lat="45.06402" lon="2.85369">
        <ele>1288.78</ele>
        <time>2014-12-30T12:18:10Z</time>
      </trkpt>
      <trkpt lat="45.06401" lon="2.85366">
        <ele>1288.78</ele>
        <time>2014-12-30T12:18:13Z</time>
      </trkpt>
      <trkpt lat="45.06399" lon="2.85358">
        <ele>1289.27</ele>
        <time>2014-12-30T12:18:19Z</time>
      </trkpt>
      <trkpt lat="45.06398" lon="2.85351">
        <ele>1289.75</ele>
        <time>2014-12-30T12:18:23Z</time>
      </trkpt>
      <trkpt lat="45.06392" lon="2.85334">
        <ele>1290.71</ele>
        <time>2014-12-30T12:18:35Z</time>
      </trkpt>
      <trkpt lat="45.0639" lon="2.85327">
        <ele>1290.71</ele>
        <time>2014-12-30T12:18:40Z</time>
      </trkpt>
      <trkpt lat="45.06382" lon="2.85285">
        <ele>1292.63</ele>
        <time>2014-12-30T12:19:04Z</time>
      </trkpt>
      <trkpt lat="45.06363" lon="2.85248">
        <ele>1291.67</ele>
        <time>2014-12-30T12:19:29Z</time>
      </trkpt>
      <trkpt lat="45.06353" lon="2.85225">
        <ele>1291.67</ele>
        <time>2014-12-30T12:19:45Z</time>
      </trkpt>
      <trkpt lat="45.0635" lon="2.85216">
        <ele>1292.15</ele>
        <time>2014-12-30T12:19:50Z</time>
      </trkpt>
      <trkpt lat="45.06349" lon="2.85207">
        <ele>1292.15</ele>
        <time>2014-12-30T12:19:55Z</time>
      </trkpt>
      <trkpt lat="45.0634" lon="2.85166">
        <ele>1292.63</ele>
        <time>2014-12-30T12:20:19Z</time>
      </trkpt>
      <trkpt lat="45.0633" lon="2.85124">
        <ele>1293.59</ele>
        <time>2014-12-30T12:20:43Z</time>
      </trkpt>
      <trkpt lat="45.06317" lon="2.85084">
        <ele>1293.11</ele>
        <time>2014-12-30T12:21:07Z</time>
      </trkpt>
      <trkpt lat="45.06306" lon="2.8507">
        <ele>1293.11</ele>
        <time>2014-12-30T12:21:17Z</time>
      </trkpt>
      <trkpt lat="45.06302" lon="2.85066">
        <ele>1293.59</ele>
        <time>2014-12-30T12:21:21Z</time>
      </trkpt>
      <trkpt lat="45.06281" lon="2.8504">
        <ele>1295.99</ele>
        <time>2014-12-30T12:21:44Z</time>
      </trkpt>
      <trkpt lat="45.06268" lon="2.85013">
        <ele>1299.36</ele>
        <time>2014-12-30T12:22:05Z</time>
      </trkpt>
      <trkpt lat="45.06254" lon="2.84985">
        <ele>1300.8</ele>
        <time>2014-12-30T12:22:26Z</time>
      </trkpt>
      <trkpt lat="45.06237" lon="2.84954">
        <ele>1302.24</ele>
        <time>2014-12-30T12:22:49Z</time>
      </trkpt>
      <trkpt lat="45.06224" lon="2.84918">
        <ele>1303.69</ele>
        <time>2014-12-30T12:23:11Z</time>
      </trkpt>
      <trkpt lat="45.06221" lon="2.8491">
        <ele>1304.17</ele>
        <time>2014-12-30T12:23:17Z</time>
      </trkpt>
      <trkpt lat="45.0622" lon="2.84903">
        <ele>1304.17</ele>
        <time>2014-12-30T12:23:21Z</time>
      </trkpt>
      <trkpt lat="45.06204" lon="2.84868">
        <ele>1305.61</ele>
        <time>2014-12-30T12:23:44Z</time>
      </trkpt>
      <trkpt lat="45.06202" lon="2.84863">
        <ele>1306.09</ele>
        <time>2014-12-30T12:23:47Z</time>
      </trkpt>
      <trkpt lat="45.06194" lon="2.84835">
        <ele>1308.97</ele>
        <time>2014-12-30T12:24:07Z</time>
      </trkpt>
      <trkpt lat="45.06189" lon="2.84812">
        <ele>1311.38</ele>
        <time>2014-12-30T12:24:23Z</time>
      </trkpt>
      <trkpt lat="45.06182" lon="2.84778">
        <ele>1312.34</ele>
        <time>2014-12-30T12:24:44Z</time>
      </trkpt>
      <trkpt lat="45.06173" lon="2.84746">
        <ele>1314.74</ele>
        <time>2014-12-30T12:25:06Z</time>
      </trkpt>
      <trkpt lat="45.0617" lon="2.84723">
        <ele>1315.7</ele>
        <time>2014-12-30T12:25:21Z</time>
      </trkpt>
      <trkpt lat="45.06166" lon="2.84709">
        <ele>1316.66</ele>
        <time>2014-12-30T12:25:30Z</time>
      </trkpt>
      <trkpt lat="45.06166" lon="2.84706">
        <ele>1316.66</ele>
        <time>2014-12-30T12:25:32Z</time>
      </trkpt>
      <trkpt lat="45.06164" lon="2.84697">
        <ele>1317.62</ele>
        <time>2014-12-30T12:25:38Z</time>
      </trkpt>
      <trkpt lat="45.06161" lon="2.84685">
        <ele>1318.59</ele>
        <time>2014-12-30T12:25:47Z</time>
      </trkpt>
      <trkpt lat="45.0616" lon="2.84668">
        <ele>1320.03</ele>
        <time>2014-12-30T12:25:57Z</time>
      </trkpt>
      <trkpt lat="45.06157" lon="2.84649">
        <ele>1320.99</ele>
        <time>2014-12-30T12:26:17Z</time>
      </trkpt>
      <trkpt lat="45.06157" lon="2.84649">
        <ele>1320.03</ele>
        <time>2014-12-30T12:26:42Z</time>
      </trkpt>
      <trkpt lat="45.06157" lon="2.84648">
        <ele>1318.59</ele>
        <time>2014-12-30T12:27:24Z</time>
      </trkpt>
      <trkpt lat="45.06157" lon="2.84648">
        <ele>1319.55</ele>
        <time>2014-12-30T12:27:26Z</time>
      </trkpt>
      <trkpt lat="45.06157" lon="2.84648">
        <ele>1313.3</ele>
        <time>2014-12-30T12:27:30Z</time>
      </trkpt>
      <trkpt lat="45.06157" lon="2.84648">
        <ele>1320.03</ele>
        <time>2014-12-30T12:27:31Z</time>
      </trkpt>
      <trkpt lat="45.06157" lon="2.84647">
        <ele>1319.55</ele>
        <time>2014-12-30T12:28:04Z</time>
      </trkpt>
      <trkpt lat="45.06158" lon="2.84648">
        <ele>1320.51</ele>
        <time>2014-12-30T12:28:44Z</time>
      </trkpt>
      <trkpt lat="45.06157" lon="2.84639">
        <ele>1320.51</ele>
        <time>2014-12-30T12:29:11Z</time>
      </trkpt>
      <trkpt lat="45.06158" lon="2.84636">
        <ele>1320.99</ele>
        <time>2014-12-30T12:29:13Z</time>
      </trkpt>
      <trkpt lat="45.06158" lon="2.8463">
        <ele>1320.99</ele>
        <time>2014-12-30T12:29:17Z</time>
      </trkpt>
      <trkpt lat="45.06157" lon="2.84621">
        <ele>1320.99</ele>
        <time>2014-12-30T12:29:22Z</time>
      </trkpt>
      <trkpt lat="45.06155" lon="2.84611">
        <ele>1321.47</ele>
        <time>2014-12-30T12:29:28Z</time>
      </trkpt>
      <trkpt lat="45.06155" lon="2.84606">
        <ele>1321.47</ele>
        <time>2014-12-30T12:29:31Z</time>
      </trkpt>
      <trkpt lat="45.06154" lon="2.84591">
        <ele>1321.47</ele>
        <time>2014-12-30T12:29:40Z</time>
      </trkpt>
      <trkpt lat="45.06154" lon="2.84579">
        <ele>1322.43</ele>
        <time>2014-12-30T12:29:47Z</time>
      </trkpt>
      <trkpt lat="45.06139" lon="2.8455">
        <ele>1323.39</ele>
        <time>2014-12-30T12:30:08Z</time>
      </trkpt>
      <trkpt lat="45.06128" lon="2.84541">
        <ele>1324.83</ele>
        <time>2014-12-30T12:30:19Z</time>
      </trkpt>
      <trkpt lat="45.06112" lon="2.84534">
        <ele>1325.8</ele>
        <time>2014-12-30T12:30:32Z</time>
      </trkpt>
      <trkpt lat="45.06098" lon="2.84527">
        <ele>1326.76</ele>
        <time>2014-12-30T12:30:45Z</time>
      </trkpt>
      <trkpt lat="45.06084" lon="2.84505">
        <ele>1327.72</ele>
        <time>2014-12-30T12:31:03Z</time>
      </trkpt>
      <trkpt lat="45.06077" lon="2.84497">
        <ele>1328.2</ele>
        <time>2014-12-30T12:31:10Z</time>
      </trkpt>
      <trkpt lat="45.06071" lon="2.84489">
        <ele>1328.2</ele>
        <time>2014-12-30T12:31:16Z</time>
      </trkpt>
      <trkpt lat="45.06052" lon="2.84471">
        <ele>1330.6</ele>
        <time>2014-12-30T12:31:37Z</time>
      </trkpt>
      <trkpt lat="45.06038" lon="2.8446">
        <ele>1332.04</ele>
        <time>2014-12-30T12:31:51Z</time>
      </trkpt>
      <trkpt lat="45.06029" lon="2.84447">
        <ele>1333.49</ele>
        <time>2014-12-30T12:32:03Z</time>
      </trkpt>
      <trkpt lat="45.06025" lon="2.84439">
        <ele>1333.97</ele>
        <time>2014-12-30T12:32:08Z</time>
      </trkpt>
      <trkpt lat="45.06023" lon="2.84434">
        <ele>1333.97</ele>
        <time>2014-12-30T12:32:11Z</time>
      </trkpt>
      <trkpt lat="45.06017" lon="2.84413">
        <ele>1337.33</ele>
        <time>2014-12-30T12:32:28Z</time>
      </trkpt>
      <trkpt lat="45.0601" lon="2.8439">
        <ele>1339.73</ele>
        <time>2014-12-30T12:32:46Z</time>
      </trkpt>
      <trkpt lat="45.06008" lon="2.84382">
        <ele>1341.18</ele>
        <time>2014-12-30T12:32:53Z</time>
      </trkpt>
      <trkpt lat="45.06005" lon="2.84372">
        <ele>1341.66</ele>
        <time>2014-12-30T12:33:00Z</time>
      </trkpt>
      <trkpt lat="45.05996" lon="2.84348">
        <ele>1342.14</ele>
        <time>2014-12-30T12:33:17Z</time>
      </trkpt>
      <trkpt lat="45.0599" lon="2.84336">
        <ele>1343.1</ele>
        <time>2014-12-30T12:33:26Z</time>
      </trkpt>
      <trkpt lat="45.0599" lon="2.84331">
        <ele>1343.58</ele>
        <time>2014-12-30T12:33:29Z</time>
      </trkpt>
      <trkpt lat="45.0599" lon="2.8432">
        <ele>1344.54</ele>
        <time>2014-12-30T12:33:35Z</time>
      </trkpt>
      <trkpt lat="45.05992" lon="2.843">
        <ele>1347.43</ele>
        <time>2014-12-30T12:33:51Z</time>
      </trkpt>
      <trkpt lat="45.05994" lon="2.84295">
        <ele>1347.91</ele>
        <time>2014-12-30T12:33:56Z</time>
      </trkpt>
      <trkpt lat="45.06002" lon="2.84287">
        <ele>1347.43</ele>
        <time>2014-12-30T12:34:13Z</time>
      </trkpt>
      <trkpt lat="45.06017" lon="2.8428">
        <ele>1347.91</ele>
        <time>2014-12-30T12:34:27Z</time>
      </trkpt>
      <trkpt lat="45.06022" lon="2.84278">
        <ele>1347.91</ele>
        <time>2014-12-30T12:34:32Z</time>
      </trkpt>
      <trkpt lat="45.06026" lon="2.84275">
        <ele>1348.39</ele>
        <time>2014-12-30T12:34:36Z</time>
      </trkpt>
      <trkpt lat="45.06031" lon="2.84271">
        <ele>1348.87</ele>
        <time>2014-12-30T12:34:41Z</time>
      </trkpt>
      <trkpt lat="45.06037" lon="2.84263">
        <ele>1349.83</ele>
        <time>2014-12-30T12:34:57Z</time>
      </trkpt>
      <trkpt lat="45.06039" lon="2.84259">
        <ele>1350.31</ele>
        <time>2014-12-30T12:35:00Z</time>
      </trkpt>
      <trkpt lat="45.06043" lon="2.84253">
        <ele>1351.27</ele>
        <time>2014-12-30T12:35:11Z</time>
      </trkpt>
      <trkpt lat="45.06047" lon="2.84249">
        <ele>1351.75</ele>
        <time>2014-12-30T12:35:15Z</time>
      </trkpt>
      <trkpt lat="45.0605" lon="2.84244">
        <ele>1352.23</ele>
        <time>2014-12-30T12:35:19Z</time>
      </trkpt>
      <trkpt lat="45.06057" lon="2.84235">
        <ele>1352.23</ele>
        <time>2014-12-30T12:35:28Z</time>
      </trkpt>
      <trkpt lat="45.06059" lon="2.84233">
        <ele>1352.23</ele>
        <time>2014-12-30T12:35:30Z</time>
      </trkpt>
      <trkpt lat="45.06061" lon="2.84229">
        <ele>1352.71</ele>
        <time>2014-12-30T12:35:33Z</time>
      </trkpt>
      <trkpt lat="45.06063" lon="2.84226">
        <ele>1353.19</ele>
        <time>2014-12-30T12:35:36Z</time>
      </trkpt>
      <trkpt lat="45.06066" lon="2.84221">
        <ele>1352.71</ele>
        <time>2014-12-30T12:35:41Z</time>
      </trkpt>
      <trkpt lat="45.06069" lon="2.84218">
        <ele>1353.19</ele>
        <time>2014-12-30T12:35:44Z</time>
      </trkpt>
      <trkpt lat="45.06074" lon="2.84215">
        <ele>1353.19</ele>
        <time>2014-12-30T12:35:49Z</time>
      </trkpt>
      <trkpt lat="45.06083" lon="2.84205">
        <ele>1353.19</ele>
        <time>2014-12-30T12:36:01Z</time>
      </trkpt>
      <trkpt lat="45.0609" lon="2.84198">
        <ele>1353.19</ele>
        <time>2014-12-30T12:36:08Z</time>
      </trkpt>
      <trkpt lat="45.06095" lon="2.84193">
        <ele>1353.67</ele>
        <time>2014-12-30T12:36:12Z</time>
      </trkpt>
      <trkpt lat="45.061" lon="2.84185">
        <ele>1354.15</ele>
        <time>2014-12-30T12:36:19Z</time>
      </trkpt>
      <trkpt lat="45.06107" lon="2.84177">
        <ele>1354.15</ele>
        <time>2014-12-30T12:36:26Z</time>
      </trkpt>
      <trkpt lat="45.06113" lon="2.84172">
        <ele>1354.63</ele>
        <time>2014-12-30T12:36:32Z</time>
      </trkpt>
      <trkpt lat="45.06119" lon="2.84165">
        <ele>1354.63</ele>
        <time>2014-12-30T12:36:38Z</time>
      </trkpt>
      <trkpt lat="45.06121" lon="2.84163">
        <ele>1354.63</ele>
        <time>2014-12-30T12:36:40Z</time>
      </trkpt>
      <trkpt lat="45.06125" lon="2.84161">
        <ele>1354.63</ele>
        <time>2014-12-30T12:36:43Z</time>
      </trkpt>
      <trkpt lat="45.06129" lon="2.84156">
        <ele>1354.63</ele>
        <time>2014-12-30T12:36:48Z</time>
      </trkpt>
      <trkpt lat="45.06132" lon="2.84153">
        <ele>1354.63</ele>
        <time>2014-12-30T12:36:51Z</time>
      </trkpt>
      <trkpt lat="45.06136" lon="2.84145">
        <ele>1355.12</ele>
        <time>2014-12-30T12:36:57Z</time>
      </trkpt>
      <trkpt lat="45.06142" lon="2.84139">
        <ele>1355.6</ele>
        <time>2014-12-30T12:37:04Z</time>
      </trkpt>
      <trkpt lat="45.06145" lon="2.84134">
        <ele>1356.08</ele>
        <time>2014-12-30T12:37:08Z</time>
      </trkpt>
      <trkpt lat="45.06152" lon="2.84129">
        <ele>1357.52</ele>
        <time>2014-12-30T12:37:15Z</time>
      </trkpt>
      <trkpt lat="45.06161" lon="2.84121">
        <ele>1358.48</ele>
        <time>2014-12-30T12:37:24Z</time>
      </trkpt>
      <trkpt lat="45.06166" lon="2.84117">
        <ele>1358.48</ele>
        <time>2014-12-30T12:37:29Z</time>
      </trkpt>
      <trkpt lat="45.06173" lon="2.8411">
        <ele>1358.96</ele>
        <time>2014-12-30T12:37:36Z</time>
      </trkpt>
      <trkpt lat="45.06176" lon="2.84108">
        <ele>1358.96</ele>
        <time>2014-12-30T12:37:39Z</time>
      </trkpt>
      <trkpt lat="45.06185" lon="2.84099">
        <ele>1359.92</ele>
        <time>2014-12-30T12:37:48Z</time>
      </trkpt>
      <trkpt lat="45.06197" lon="2.84088">
        <ele>1360.88</ele>
        <time>2014-12-30T12:38:01Z</time>
      </trkpt>
      <trkpt lat="45.06206" lon="2.84081">
        <ele>1361.84</ele>
        <time>2014-12-30T12:38:09Z</time>
      </trkpt>
      <trkpt lat="45.06213" lon="2.84074">
        <ele>1362.33</ele>
        <time>2014-12-30T12:38:17Z</time>
      </trkpt>
      <trkpt lat="45.06217" lon="2.84071">
        <ele>1362.33</ele>
        <time>2014-12-30T12:38:21Z</time>
      </trkpt>
      <trkpt lat="45.0622" lon="2.84066">
        <ele>1363.29</ele>
        <time>2014-12-30T12:38:26Z</time>
      </trkpt>
      <trkpt lat="45.06215" lon="2.84058">
        <ele>1363.77</ele>
        <time>2014-12-30T12:38:33Z</time>
      </trkpt>
      <trkpt lat="45.06212" lon="2.84052">
        <ele>1363.77</ele>
        <time>2014-12-30T12:38:37Z</time>
      </trkpt>
      <trkpt lat="45.06199" lon="2.84042">
        <ele>1364.73</ele>
        <time>2014-12-30T12:38:50Z</time>
      </trkpt>
      <trkpt lat="45.06188" lon="2.84029">
        <ele>1366.17</ele>
        <time>2014-12-30T12:39:02Z</time>
      </trkpt>
      <trkpt lat="45.06171" lon="2.84012">
        <ele>1368.09</ele>
        <time>2014-12-30T12:39:19Z</time>
      </trkpt>
      <trkpt lat="45.06163" lon="2.84005">
        <ele>1368.57</ele>
        <time>2014-12-30T12:39:26Z</time>
      </trkpt>
      <trkpt lat="45.06159" lon="2.84002">
        <ele>1368.57</ele>
        <time>2014-12-30T12:39:30Z</time>
      </trkpt>
      <trkpt lat="45.06158" lon="2.83999">
        <ele>1369.05</ele>
        <time>2014-12-30T12:39:32Z</time>
      </trkpt>
      <trkpt lat="45.06147" lon="2.83975">
        <ele>1370.98</ele>
        <time>2014-12-30T12:39:49Z</time>
      </trkpt>
      <trkpt lat="45.06143" lon="2.83964">
        <ele>1371.46</ele>
        <time>2014-12-30T12:39:56Z</time>
      </trkpt>
      <trkpt lat="45.06139" lon="2.83953">
        <ele>1371.94</ele>
        <time>2014-12-30T12:40:04Z</time>
      </trkpt>
      <trkpt lat="45.0613" lon="2.83937">
        <ele>1373.38</ele>
        <time>2014-12-30T12:40:17Z</time>
      </trkpt>
      <trkpt lat="45.06122" lon="2.8392">
        <ele>1375.78</ele>
        <time>2014-12-30T12:40:31Z</time>
      </trkpt>
      <trkpt lat="45.06118" lon="2.8391">
        <ele>1376.75</ele>
        <time>2014-12-30T12:40:39Z</time>
      </trkpt>
      <trkpt lat="45.06117" lon="2.83901">
        <ele>1377.23</ele>
        <time>2014-12-30T12:40:46Z</time>
      </trkpt>
      <trkpt lat="45.06106" lon="2.83869">
        <ele>1380.11</ele>
        <time>2014-12-30T12:41:08Z</time>
      </trkpt>
      <trkpt lat="45.06091" lon="2.83842">
        <ele>1382.03</ele>
        <time>2014-12-30T12:41:29Z</time>
      </trkpt>
      <trkpt lat="45.06088" lon="2.83837">
        <ele>1382.03</ele>
        <time>2014-12-30T12:41:50Z</time>
      </trkpt>
      <trkpt lat="45.06083" lon="2.83824">
        <ele>1383.47</ele>
        <time>2014-12-30T12:42:09Z</time>
      </trkpt>
      <trkpt lat="45.06082" lon="2.8382">
        <ele>1383.96</ele>
        <time>2014-12-30T12:42:11Z</time>
      </trkpt>
      <trkpt lat="45.06074" lon="2.83804">
        <ele>1384.44</ele>
        <time>2014-12-30T12:42:23Z</time>
      </trkpt>
      <trkpt lat="45.06071" lon="2.83801">
        <ele>1383.96</ele>
        <time>2014-12-30T12:42:26Z</time>
      </trkpt>
      <trkpt lat="45.06067" lon="2.83799">
        <ele>1384.44</ele>
        <time>2014-12-30T12:42:30Z</time>
      </trkpt>
      <trkpt lat="45.06056" lon="2.8378">
        <ele>1387.32</ele>
        <time>2014-12-30T12:42:50Z</time>
      </trkpt>
      <trkpt lat="45.06057" lon="2.83779">
        <ele>1386.84</ele>
        <time>2014-12-30T12:43:02Z</time>
      </trkpt>
      <trkpt lat="45.06053" lon="2.8377">
        <ele>1387.8</ele>
        <time>2014-12-30T12:43:10Z</time>
      </trkpt>
      <trkpt lat="45.0605" lon="2.83763">
        <ele>1388.28</ele>
        <time>2014-12-30T12:43:15Z</time>
      </trkpt>
      <trkpt lat="45.06049" lon="2.83757">
        <ele>1387.8</ele>
        <time>2014-12-30T12:43:36Z</time>
      </trkpt>
      <trkpt lat="45.06049" lon="2.83757">
        <ele>1387.8</ele>
        <time>2014-12-30T12:43:58Z</time>
      </trkpt>
      <trkpt lat="45.06049" lon="2.83756">
        <ele>1385.4</ele>
        <time>2014-12-30T12:44:09Z</time>
      </trkpt>
      <trkpt lat="45.06049" lon="2.83756">
        <ele>1386.84</ele>
        <time>2014-12-30T12:44:12Z</time>
      </trkpt>
      <trkpt lat="45.0605" lon="2.83758">
        <ele>1386.36</ele>
        <time>2014-12-30T12:45:10Z</time>
      </trkpt>
      <trkpt lat="45.06049" lon="2.83757">
        <ele>1386.84</ele>
        <time>2014-12-30T12:46:05Z</time>
      </trkpt>
      <trkpt lat="45.0605" lon="2.83759">
        <ele>1386.36</ele>
        <time>2014-12-30T12:46:32Z</time>
      </trkpt>
      <trkpt lat="45.0605" lon="2.83759">
        <ele>1388.28</ele>
        <time>2014-12-30T12:46:36Z</time>
      </trkpt>
      <trkpt lat="45.06049" lon="2.83757">
        <ele>1387.32</ele>
        <time>2014-12-30T12:47:06Z</time>
      </trkpt>
      <trkpt lat="45.06049" lon="2.83757">
        <ele>1386.84</ele>
        <time>2014-12-30T12:47:45Z</time>
      </trkpt>
      <trkpt lat="45.06048" lon="2.83757">
        <ele>1387.32</ele>
        <time>2014-12-30T12:48:14Z</time>
      </trkpt>
      <trkpt lat="45.06048" lon="2.83756">
        <ele>1386.84</ele>
        <time>2014-12-30T12:48:50Z</time>
      </trkpt>
      <trkpt lat="45.06048" lon="2.83756">
        <ele>1386.36</ele>
        <time>2014-12-30T12:49:25Z</time>
      </trkpt>
      <trkpt lat="45.06048" lon="2.83755">
        <ele>1386.36</ele>
        <time>2014-12-30T12:49:43Z</time>
      </trkpt>
      <trkpt lat="45.06046" lon="2.83745">
        <ele>1386.36</ele>
        <time>2014-12-30T12:49:50Z</time>
      </trkpt>
      <trkpt lat="45.06031" lon="2.83711">
        <ele>1386.84</ele>
        <time>2014-12-30T12:50:13Z</time>
      </trkpt>
      <trkpt lat="45.06016" lon="2.83684">
        <ele>1387.32</ele>
        <time>2014-12-30T12:50:32Z</time>
      </trkpt>
      <trkpt lat="45.06005" lon="2.83666">
        <ele>1387.32</ele>
        <time>2014-12-30T12:50:45Z</time>
      </trkpt>
      <trkpt lat="45.06004" lon="2.83662">
        <ele>1387.32</ele>
        <time>2014-12-30T12:50:50Z</time>
      </trkpt>
      <trkpt lat="45.06" lon="2.83657">
        <ele>1387.32</ele>
        <time>2014-12-30T12:50:54Z</time>
      </trkpt>
      <trkpt lat="45.05985" lon="2.8363">
        <ele>1388.28</ele>
        <time>2014-12-30T12:51:15Z</time>
      </trkpt>
      <trkpt lat="45.0597" lon="2.83608">
        <ele>1389.72</ele>
        <time>2014-12-30T12:51:36Z</time>
      </trkpt>
      <trkpt lat="45.05955" lon="2.83584">
        <ele>1391.17</ele>
        <time>2014-12-30T12:51:56Z</time>
      </trkpt>
      <trkpt lat="45.05941" lon="2.83561">
        <ele>1393.09</ele>
        <time>2014-12-30T12:52:15Z</time>
      </trkpt>
      <trkpt lat="45.05926" lon="2.83538">
        <ele>1394.05</ele>
        <time>2014-12-30T12:52:35Z</time>
      </trkpt>
      <trkpt lat="45.0591" lon="2.83514">
        <ele>1395.01</ele>
        <time>2014-12-30T12:52:54Z</time>
      </trkpt>
      <trkpt lat="45.05896" lon="2.83495">
        <ele>1395.97</ele>
        <time>2014-12-30T12:53:13Z</time>
      </trkpt>
      <trkpt lat="45.05883" lon="2.83488">
        <ele>1395.97</ele>
        <time>2014-12-30T12:53:30Z</time>
      </trkpt>
      <trkpt lat="45.0588" lon="2.83486">
        <ele>1396.45</ele>
        <time>2014-12-30T12:53:34Z</time>
      </trkpt>
      <trkpt lat="45.05876" lon="2.83484">
        <ele>1396.45</ele>
        <time>2014-12-30T12:53:38Z</time>
      </trkpt>
      <trkpt lat="45.05873" lon="2.83482">
        <ele>1396.93</ele>
        <time>2014-12-30T12:53:41Z</time>
      </trkpt>
      <trkpt lat="45.05859" lon="2.83475">
        <ele>1396.45</ele>
        <time>2014-12-30T12:53:56Z</time>
      </trkpt>
      <trkpt lat="45.05855" lon="2.83476">
        <ele>1396.45</ele>
        <time>2014-12-30T12:54:00Z</time>
      </trkpt>
      <trkpt lat="45.05844" lon="2.83472">
        <ele>1396.45</ele>
        <time>2014-12-30T12:54:11Z</time>
      </trkpt>
      <trkpt lat="45.05834" lon="2.8347">
        <ele>1396.45</ele>
        <time>2014-12-30T12:54:25Z</time>
      </trkpt>
      <trkpt lat="45.0583" lon="2.8347">
        <ele>1396.45</ele>
        <time>2014-12-30T12:54:30Z</time>
      </trkpt>
      <trkpt lat="45.05816" lon="2.83466">
        <ele>1396.93</ele>
        <time>2014-12-30T12:54:46Z</time>
      </trkpt>
      <trkpt lat="45.05795" lon="2.83468">
        <ele>1396.93</ele>
        <time>2014-12-30T12:55:07Z</time>
      </trkpt>
      <trkpt lat="45.05794" lon="2.83468">
        <ele>1396.45</ele>
        <time>2014-12-30T12:55:08Z</time>
      </trkpt>
      <trkpt lat="45.05791" lon="2.83469">
        <ele>1396.93</ele>
        <time>2014-12-30T12:55:11Z</time>
      </trkpt>
      <trkpt lat="45.05789" lon="2.8347">
        <ele>1395.97</ele>
        <time>2014-12-30T12:55:13Z</time>
      </trkpt>
      <trkpt lat="45.05772" lon="2.83475">
        <ele>1396.45</ele>
        <time>2014-12-30T12:55:33Z</time>
      </trkpt>
      <trkpt lat="45.05764" lon="2.83477">
        <ele>1396.45</ele>
        <time>2014-12-30T12:55:42Z</time>
      </trkpt>
      <trkpt lat="45.05751" lon="2.83483">
        <ele>1396.45</ele>
        <time>2014-12-30T12:55:56Z</time>
      </trkpt>
      <trkpt lat="45.05732" lon="2.83481">
        <ele>1396.93</ele>
        <time>2014-12-30T12:56:16Z</time>
      </trkpt>
      <trkpt lat="45.05723" lon="2.83479">
        <ele>1396.93</ele>
        <time>2014-12-30T12:56:25Z</time>
      </trkpt>
      <trkpt lat="45.05706" lon="2.83476">
        <ele>1397.89</ele>
        <time>2014-12-30T12:56:44Z</time>
      </trkpt>
      <trkpt lat="45.05691" lon="2.83472">
        <ele>1399.34</ele>
        <time>2014-12-30T12:57:01Z</time>
      </trkpt>
      <trkpt lat="45.05675" lon="2.83467">
        <ele>1399.82</ele>
        <time>2014-12-30T12:57:19Z</time>
      </trkpt>
      <trkpt lat="45.05662" lon="2.83462">
        <ele>1401.26</ele>
        <time>2014-12-30T12:57:35Z</time>
      </trkpt>
      <trkpt lat="45.0566" lon="2.83461">
        <ele>1401.26</ele>
        <time>2014-12-30T12:57:37Z</time>
      </trkpt>
      <trkpt lat="45.05658" lon="2.8346">
        <ele>1401.74</ele>
        <time>2014-12-30T12:57:39Z</time>
      </trkpt>
      <trkpt lat="45.0565" lon="2.83457">
        <ele>1402.22</ele>
        <time>2014-12-30T12:57:49Z</time>
      </trkpt>
      <trkpt lat="45.05641" lon="2.83457">
        <ele>1403.18</ele>
        <time>2014-12-30T12:58:08Z</time>
      </trkpt>
      <trkpt lat="45.05638" lon="2.83458">
        <ele>1402.7</ele>
        <time>2014-12-30T12:58:16Z</time>
      </trkpt>
      <trkpt lat="45.05628" lon="2.83455">
        <ele>1404.14</ele>
        <time>2014-12-30T12:58:33Z</time>
      </trkpt>
      <trkpt lat="45.05615" lon="2.83449">
        <ele>1405.58</ele>
        <time>2014-12-30T12:58:52Z</time>
      </trkpt>
      <trkpt lat="45.05613" lon="2.83449">
        <ele>1405.58</ele>
        <time>2014-12-30T12:58:54Z</time>
      </trkpt>
      <trkpt lat="45.05607" lon="2.83447">
        <ele>1405.58</ele>
        <time>2014-12-30T12:59:01Z</time>
      </trkpt>
      <trkpt lat="45.05593" lon="2.83448">
        <ele>1406.55</ele>
        <time>2014-12-30T12:59:16Z</time>
      </trkpt>
      <trkpt lat="45.05583" lon="2.83447">
        <ele>1407.51</ele>
        <time>2014-12-30T12:59:37Z</time>
      </trkpt>
      <trkpt lat="45.0558" lon="2.83447">
        <ele>1407.99</ele>
        <time>2014-12-30T12:59:40Z</time>
      </trkpt>
      <trkpt lat="45.05577" lon="2.83447">
        <ele>1408.47</ele>
        <time>2014-12-30T12:59:44Z</time>
      </trkpt>
      <trkpt lat="45.0556" lon="2.83448">
        <ele>1409.91</ele>
        <time>2014-12-30T13:00:03Z</time>
      </trkpt>
      <trkpt lat="45.05559" lon="2.83448">
        <ele>1409.91</ele>
        <time>2014-12-30T13:00:05Z</time>
      </trkpt>
      <trkpt lat="45.05555" lon="2.83448">
        <ele>1410.39</ele>
        <time>2014-12-30T13:00:09Z</time>
      </trkpt>
      <trkpt lat="45.05542" lon="2.83453">
        <ele>1411.35</ele>
        <time>2014-12-30T13:00:25Z</time>
      </trkpt>
      <trkpt lat="45.05536" lon="2.83456">
        <ele>1411.83</ele>
        <time>2014-12-30T13:00:33Z</time>
      </trkpt>
      <trkpt lat="45.0552" lon="2.83468">
        <ele>1412.79</ele>
        <time>2014-12-30T13:00:53Z</time>
      </trkpt>
      <trkpt lat="45.05518" lon="2.83469">
        <ele>1412.31</ele>
        <time>2014-12-30T13:00:55Z</time>
      </trkpt>
      <trkpt lat="45.05502" lon="2.8347">
        <ele>1413.28</ele>
        <time>2014-12-30T13:01:13Z</time>
      </trkpt>
      <trkpt lat="45.05499" lon="2.83467">
        <ele>1413.76</ele>
        <time>2014-12-30T13:01:18Z</time>
      </trkpt>
      <trkpt lat="45.05495" lon="2.83466">
        <ele>1413.76</ele>
        <time>2014-12-30T13:01:23Z</time>
      </trkpt>
      <trkpt lat="45.05482" lon="2.83457">
        <ele>1415.68</ele>
        <time>2014-12-30T13:01:41Z</time>
      </trkpt>
      <trkpt lat="45.05473" lon="2.8345">
        <ele>1416.64</ele>
        <time>2014-12-30T13:01:56Z</time>
      </trkpt>
      <trkpt lat="45.0547" lon="2.83447">
        <ele>1417.12</ele>
        <time>2014-12-30T13:02:00Z</time>
      </trkpt>
      <trkpt lat="45.05462" lon="2.83442">
        <ele>1418.08</ele>
        <time>2014-12-30T13:02:13Z</time>
      </trkpt>
      <trkpt lat="45.05459" lon="2.83439">
        <ele>1419.04</ele>
        <time>2014-12-30T13:02:17Z</time>
      </trkpt>
      <trkpt lat="45.05454" lon="2.83435">
        <ele>1419.04</ele>
        <time>2014-12-30T13:02:24Z</time>
      </trkpt>
      <trkpt lat="45.05451" lon="2.83434">
        <ele>1419.52</ele>
        <time>2014-12-30T13:02:28Z</time>
      </trkpt>
      <trkpt lat="45.05444" lon="2.83423">
        <ele>1420.49</ele>
        <time>2014-12-30T13:02:40Z</time>
      </trkpt>
      <trkpt lat="45.05442" lon="2.83418">
        <ele>1420.97</ele>
        <time>2014-12-30T13:02:45Z</time>
      </trkpt>
      <trkpt lat="45.05434" lon="2.83396">
        <ele>1422.41</ele>
        <time>2014-12-30T13:03:04Z</time>
      </trkpt>
      <trkpt lat="45.05426" lon="2.83379">
        <ele>1423.37</ele>
        <time>2014-12-30T13:03:20Z</time>
      </trkpt>
      <trkpt lat="45.05425" lon="2.83377">
        <ele>1423.37</ele>
        <time>2014-12-30T13:03:22Z</time>
      </trkpt>
      <trkpt lat="45.05419" lon="2.83367">
        <ele>1423.85</ele>
        <time>2014-12-30T13:03:33Z</time>
      </trkpt>
      <trkpt lat="45.05408" lon="2.83347">
        <ele>1424.81</ele>
        <time>2014-12-30T13:03:52Z</time>
      </trkpt>
      <trkpt lat="45.054" lon="2.83329">
        <ele>1426.25</ele>
        <time>2014-12-30T13:04:09Z</time>
      </trkpt>
      <trkpt lat="45.05394" lon="2.83318">
        <ele>1426.73</ele>
        <time>2014-12-30T13:04:20Z</time>
      </trkpt>
      <trkpt lat="45.05385" lon="2.83298">
        <ele>1428.18</ele>
        <time>2014-12-30T13:04:38Z</time>
      </trkpt>
      <trkpt lat="45.05375" lon="2.8328">
        <ele>1427.7</ele>
        <time>2014-12-30T13:04:54Z</time>
      </trkpt>
      <trkpt lat="45.05363" lon="2.83257">
        <ele>1428.66</ele>
        <time>2014-12-30T13:05:13Z</time>
      </trkpt>
      <trkpt lat="45.05353" lon="2.83238">
        <ele>1429.14</ele>
        <time>2014-12-30T13:05:31Z</time>
      </trkpt>
      <trkpt lat="45.05352" lon="2.83236">
        <ele>1429.14</ele>
        <time>2014-12-30T13:05:33Z</time>
      </trkpt>
      <trkpt lat="45.05347" lon="2.83227">
        <ele>1429.62</ele>
        <time>2014-12-30T13:05:43Z</time>
      </trkpt>
      <trkpt lat="45.05341" lon="2.83216">
        <ele>1430.1</ele>
        <time>2014-12-30T13:06:01Z</time>
      </trkpt>
      <trkpt lat="45.05335" lon="2.83208">
        <ele>1430.58</ele>
        <time>2014-12-30T13:06:12Z</time>
      </trkpt>
      <trkpt lat="45.05326" lon="2.83195">
        <ele>1432.02</ele>
        <time>2014-12-30T13:06:29Z</time>
      </trkpt>
      <trkpt lat="45.05323" lon="2.83191">
        <ele>1432.5</ele>
        <time>2014-12-30T13:06:33Z</time>
      </trkpt>
      <trkpt lat="45.0531" lon="2.83178">
        <ele>1433.94</ele>
        <time>2014-12-30T13:06:53Z</time>
      </trkpt>
      <trkpt lat="45.05296" lon="2.83165">
        <ele>1433.94</ele>
        <time>2014-12-30T13:07:12Z</time>
      </trkpt>
      <trkpt lat="45.05287" lon="2.83159">
        <ele>1434.42</ele>
        <time>2014-12-30T13:07:24Z</time>
      </trkpt>
      <trkpt lat="45.05281" lon="2.83153">
        <ele>1434.91</ele>
        <time>2014-12-30T13:07:32Z</time>
      </trkpt>
      <trkpt lat="45.05266" lon="2.83142">
        <ele>1436.35</ele>
        <time>2014-12-30T13:07:54Z</time>
      </trkpt>
      <trkpt lat="45.05262" lon="2.8314">
        <ele>1435.87</ele>
        <time>2014-12-30T13:08:11Z</time>
      </trkpt>
      <trkpt lat="45.05259" lon="2.83143">
        <ele>1435.39</ele>
        <time>2014-12-30T13:08:16Z</time>
      </trkpt>
      <trkpt lat="45.05251" lon="2.83139">
        <ele>1435.87</ele>
        <time>2014-12-30T13:08:31Z</time>
      </trkpt>
      <trkpt lat="45.05237" lon="2.83125">
        <ele>1436.35</ele>
        <time>2014-12-30T13:08:51Z</time>
      </trkpt>
      <trkpt lat="45.05231" lon="2.8312">
        <ele>1438.27</ele>
        <time>2014-12-30T13:09:01Z</time>
      </trkpt>
      <trkpt lat="45.05223" lon="2.83115">
        <ele>1440.19</ele>
        <time>2014-12-30T13:09:12Z</time>
      </trkpt>
      <trkpt lat="45.05222" lon="2.83114">
        <ele>1439.71</ele>
        <time>2014-12-30T13:09:14Z</time>
      </trkpt>
      <trkpt lat="45.0522" lon="2.83113">
        <ele>1439.71</ele>
        <time>2014-12-30T13:09:16Z</time>
      </trkpt>
      <trkpt lat="45.05205" lon="2.83102">
        <ele>1441.15</ele>
        <time>2014-12-30T13:09:35Z</time>
      </trkpt>
      <trkpt lat="45.05195" lon="2.83092">
        <ele>1443.08</ele>
        <time>2014-12-30T13:09:52Z</time>
      </trkpt>
      <trkpt lat="45.05185" lon="2.83081">
        <ele>1445</ele>
        <time>2014-12-30T13:10:09Z</time>
      </trkpt>
      <trkpt lat="45.05172" lon="2.83071">
        <ele>1447.4</ele>
        <time>2014-12-30T13:10:27Z</time>
      </trkpt>
      <trkpt lat="45.05169" lon="2.83067">
        <ele>1447.88</ele>
        <time>2014-12-30T13:10:33Z</time>
      </trkpt>
      <trkpt lat="45.05162" lon="2.83061">
        <ele>1449.32</ele>
        <time>2014-12-30T13:10:53Z</time>
      </trkpt>
      <trkpt lat="45.05157" lon="2.83056">
        <ele>1450.29</ele>
        <time>2014-12-30T13:11:01Z</time>
      </trkpt>
      <trkpt lat="45.05147" lon="2.83045">
        <ele>1451.25</ele>
        <time>2014-12-30T13:11:17Z</time>
      </trkpt>
      <trkpt lat="45.05139" lon="2.83038">
        <ele>1452.69</ele>
        <time>2014-12-30T13:11:28Z</time>
      </trkpt>
      <trkpt lat="45.05126" lon="2.83023">
        <ele>1453.65</ele>
        <time>2014-12-30T13:11:46Z</time>
      </trkpt>
      <trkpt lat="45.05115" lon="2.83012">
        <ele>1455.09</ele>
        <time>2014-12-30T13:12:00Z</time>
      </trkpt>
      <trkpt lat="45.05103" lon="2.82999">
        <ele>1457.5</ele>
        <time>2014-12-30T13:12:18Z</time>
      </trkpt>
      <trkpt lat="45.05092" lon="2.82983">
        <ele>1459.9</ele>
        <time>2014-12-30T13:12:37Z</time>
      </trkpt>
      <trkpt lat="45.05084" lon="2.82975">
        <ele>1460.38</ele>
        <time>2014-12-30T13:12:49Z</time>
      </trkpt>
      <trkpt lat="45.05079" lon="2.82969">
        <ele>1460.86</ele>
        <time>2014-12-30T13:12:57Z</time>
      </trkpt>
      <trkpt lat="45.05076" lon="2.82968">
        <ele>1460.86</ele>
        <time>2014-12-30T13:13:00Z</time>
      </trkpt>
      <trkpt lat="45.05064" lon="2.8295">
        <ele>1462.78</ele>
        <time>2014-12-30T13:13:20Z</time>
      </trkpt>
      <trkpt lat="45.05051" lon="2.82935">
        <ele>1464.23</ele>
        <time>2014-12-30T13:13:39Z</time>
      </trkpt>
      <trkpt lat="45.05038" lon="2.8292">
        <ele>1466.15</ele>
        <time>2014-12-30T13:13:57Z</time>
      </trkpt>
      <trkpt lat="45.05029" lon="2.82909">
        <ele>1466.63</ele>
        <time>2014-12-30T13:14:12Z</time>
      </trkpt>
      <trkpt lat="45.05027" lon="2.82907">
        <ele>1467.11</ele>
        <time>2014-12-30T13:14:14Z</time>
      </trkpt>
      <trkpt lat="45.05025" lon="2.82904">
        <ele>1467.11</ele>
        <time>2014-12-30T13:14:17Z</time>
      </trkpt>
      <trkpt lat="45.05015" lon="2.82894">
        <ele>1469.03</ele>
        <time>2014-12-30T13:14:36Z</time>
      </trkpt>
      <trkpt lat="45.05014" lon="2.82891">
        <ele>1468.07</ele>
        <time>2014-12-30T13:15:03Z</time>
      </trkpt>
      <trkpt lat="45.05006" lon="2.82877">
        <ele>1468.55</ele>
        <time>2014-12-30T13:15:16Z</time>
      </trkpt>
      <trkpt lat="45.04992" lon="2.82864">
        <ele>1470.95</ele>
        <time>2014-12-30T13:15:33Z</time>
      </trkpt>
      <trkpt lat="45.04979" lon="2.82844">
        <ele>1471.44</ele>
        <time>2014-12-30T13:15:53Z</time>
      </trkpt>
      <trkpt lat="45.04967" lon="2.82832">
        <ele>1472.4</ele>
        <time>2014-12-30T13:16:07Z</time>
      </trkpt>
      <trkpt lat="45.04953" lon="2.82816">
        <ele>1473.84</ele>
        <time>2014-12-30T13:16:26Z</time>
      </trkpt>
      <trkpt lat="45.04949" lon="2.82811">
        <ele>1473.84</ele>
        <time>2014-12-30T13:16:32Z</time>
      </trkpt>
      <trkpt lat="45.04946" lon="2.82808">
        <ele>1474.32</ele>
        <time>2014-12-30T13:16:36Z</time>
      </trkpt>
      <trkpt lat="45.04941" lon="2.82801">
        <ele>1474.32</ele>
        <time>2014-12-30T13:16:43Z</time>
      </trkpt>
      <trkpt lat="45.0494" lon="2.82799">
        <ele>1473.84</ele>
        <time>2014-12-30T13:16:45Z</time>
      </trkpt>
      <trkpt lat="45.04935" lon="2.82792">
        <ele>1473.84</ele>
        <time>2014-12-30T13:16:53Z</time>
      </trkpt>
      <trkpt lat="45.0492" lon="2.82771">
        <ele>1475.28</ele>
        <time>2014-12-30T13:17:14Z</time>
      </trkpt>
      <trkpt lat="45.04907" lon="2.82753">
        <ele>1474.8</ele>
        <time>2014-12-30T13:17:33Z</time>
      </trkpt>
      <trkpt lat="45.04906" lon="2.82752">
        <ele>1474.8</ele>
        <time>2014-12-30T13:17:35Z</time>
      </trkpt>
      <trkpt lat="45.04904" lon="2.82751">
        <ele>1474.32</ele>
        <time>2014-12-30T13:17:37Z</time>
      </trkpt>
      <trkpt lat="45.04901" lon="2.82749">
        <ele>1474.32</ele>
        <time>2014-12-30T13:17:40Z</time>
      </trkpt>
      <trkpt lat="45.04896" lon="2.82745">
        <ele>1475.28</ele>
        <time>2014-12-30T13:17:46Z</time>
      </trkpt>
      <trkpt lat="45.04892" lon="2.82723">
        <ele>1474.32</ele>
        <time>2014-12-30T13:18:03Z</time>
      </trkpt>
      <trkpt lat="45.04888" lon="2.82709">
        <ele>1474.32</ele>
        <time>2014-12-30T13:18:18Z</time>
      </trkpt>
      <trkpt lat="45.04885" lon="2.8268">
        <ele>1472.4</ele>
        <time>2014-12-30T13:18:38Z</time>
      </trkpt>
      <trkpt lat="45.04884" lon="2.82667">
        <ele>1472.88</ele>
        <time>2014-12-30T13:18:47Z</time>
      </trkpt>
      <trkpt lat="45.04884" lon="2.82644">
        <ele>1471.92</ele>
        <time>2014-12-30T13:19:02Z</time>
      </trkpt>
      <trkpt lat="45.04884" lon="2.82639">
        <ele>1471.92</ele>
        <time>2014-12-30T13:19:06Z</time>
      </trkpt>
      <trkpt lat="45.04883" lon="2.82617">
        <ele>1470.95</ele>
        <time>2014-12-30T13:19:25Z</time>
      </trkpt>
      <trkpt lat="45.04883" lon="2.82611">
        <ele>1469.99</ele>
        <time>2014-12-30T13:19:35Z</time>
      </trkpt>
      <trkpt lat="45.04882" lon="2.82605">
        <ele>1470.47</ele>
        <time>2014-12-30T13:19:39Z</time>
      </trkpt>
      <trkpt lat="45.04885" lon="2.82589">
        <ele>1469.99</ele>
        <time>2014-12-30T13:19:51Z</time>
      </trkpt>
      <trkpt lat="45.04887" lon="2.82586">
        <ele>1469.99</ele>
        <time>2014-12-30T13:19:54Z</time>
      </trkpt>
      <trkpt lat="45.04891" lon="2.82573">
        <ele>1469.99</ele>
        <time>2014-12-30T13:20:04Z</time>
      </trkpt>
      <trkpt lat="45.04897" lon="2.82544">
        <ele>1469.99</ele>
        <time>2014-12-30T13:20:24Z</time>
      </trkpt>
      <trkpt lat="45.04898" lon="2.82529">
        <ele>1469.03</ele>
        <time>2014-12-30T13:20:35Z</time>
      </trkpt>
      <trkpt lat="45.049" lon="2.82517">
        <ele>1469.03</ele>
        <time>2014-12-30T13:20:52Z</time>
      </trkpt>
      <trkpt lat="45.04899" lon="2.82509">
        <ele>1469.03</ele>
        <time>2014-12-30T13:20:57Z</time>
      </trkpt>
      <trkpt lat="45.04904" lon="2.82482">
        <ele>1467.11</ele>
        <time>2014-12-30T13:21:15Z</time>
      </trkpt>
      <trkpt lat="45.04907" lon="2.82467">
        <ele>1466.63</ele>
        <time>2014-12-30T13:21:24Z</time>
      </trkpt>
      <trkpt lat="45.0491" lon="2.82451">
        <ele>1466.15</ele>
        <time>2014-12-30T13:21:34Z</time>
      </trkpt>
      <trkpt lat="45.04913" lon="2.82427">
        <ele>1465.19</ele>
        <time>2014-12-30T13:21:48Z</time>
      </trkpt>
      <trkpt lat="45.04922" lon="2.8239">
        <ele>1463.26</ele>
        <time>2014-12-30T13:22:11Z</time>
      </trkpt>
      <trkpt lat="45.04924" lon="2.82381">
        <ele>1463.26</ele>
        <time>2014-12-30T13:22:16Z</time>
      </trkpt>
      <trkpt lat="45.04925" lon="2.82369">
        <ele>1462.3</ele>
        <time>2014-12-30T13:22:23Z</time>
      </trkpt>
      <trkpt lat="45.04928" lon="2.82344">
        <ele>1460.86</ele>
        <time>2014-12-30T13:22:36Z</time>
      </trkpt>
      <trkpt lat="45.04929" lon="2.82341">
        <ele>1460.86</ele>
        <time>2014-12-30T13:22:38Z</time>
      </trkpt>
      <trkpt lat="45.04931" lon="2.82334">
        <ele>1460.86</ele>
        <time>2014-12-30T13:22:42Z</time>
      </trkpt>
      <trkpt lat="45.04937" lon="2.82303">
        <ele>1458.94</ele>
        <time>2014-12-30T13:23:01Z</time>
      </trkpt>
      <trkpt lat="45.04952" lon="2.82274">
        <ele>1457.5</ele>
        <time>2014-12-30T13:23:22Z</time>
      </trkpt>
      <trkpt lat="45.04961" lon="2.82265">
        <ele>1457.5</ele>
        <time>2014-12-30T13:23:30Z</time>
      </trkpt>
      <trkpt lat="45.04977" lon="2.82232">
        <ele>1454.13</ele>
        <time>2014-12-30T13:23:55Z</time>
      </trkpt>
      <trkpt lat="45.04978" lon="2.82217">
        <ele>1454.13</ele>
        <time>2014-12-30T13:24:04Z</time>
      </trkpt>
      <trkpt lat="45.04979" lon="2.822">
        <ele>1454.61</ele>
        <time>2014-12-30T13:24:15Z</time>
      </trkpt>
      <trkpt lat="45.04979" lon="2.82177">
        <ele>1454.61</ele>
        <time>2014-12-30T13:24:31Z</time>
      </trkpt>
      <trkpt lat="45.04978" lon="2.82158">
        <ele>1454.13</ele>
        <time>2014-12-30T13:24:44Z</time>
      </trkpt>
      <trkpt lat="45.04979" lon="2.82129">
        <ele>1455.09</ele>
        <time>2014-12-30T13:25:03Z</time>
      </trkpt>
      <trkpt lat="45.04978" lon="2.82126">
        <ele>1455.57</ele>
        <time>2014-12-30T13:25:05Z</time>
      </trkpt>
      <trkpt lat="45.04978" lon="2.82101">
        <ele>1455.09</ele>
        <time>2014-12-30T13:25:23Z</time>
      </trkpt>
      <trkpt lat="45.04979" lon="2.82076">
        <ele>1454.61</ele>
        <time>2014-12-30T13:25:42Z</time>
      </trkpt>
      <trkpt lat="45.04979" lon="2.8207">
        <ele>1455.57</ele>
        <time>2014-12-30T13:25:46Z</time>
      </trkpt>
      <trkpt lat="45.04979" lon="2.82066">
        <ele>1455.57</ele>
        <time>2014-12-30T13:25:49Z</time>
      </trkpt>
      <trkpt lat="45.04981" lon="2.8204">
        <ele>1456.05</ele>
        <time>2014-12-30T13:26:09Z</time>
      </trkpt>
      <trkpt lat="45.04982" lon="2.82017">
        <ele>1457.5</ele>
        <time>2014-12-30T13:26:29Z</time>
      </trkpt>
      <trkpt lat="45.04981" lon="2.81999">
        <ele>1460.38</ele>
        <time>2014-12-30T13:26:48Z</time>
      </trkpt>
      <trkpt lat="45.04979" lon="2.81995">
        <ele>1459.9</ele>
        <time>2014-12-30T13:27:08Z</time>
      </trkpt>
      <trkpt lat="45.0498" lon="2.81976">
        <ele>1461.82</ele>
        <time>2014-12-30T13:27:25Z</time>
      </trkpt>
      <trkpt lat="45.0498" lon="2.81971">
        <ele>1461.82</ele>
        <time>2014-12-30T13:27:28Z</time>
      </trkpt>
      <trkpt lat="45.04979" lon="2.81965">
        <ele>1461.34</ele>
        <time>2014-12-30T13:27:32Z</time>
      </trkpt>
      <trkpt lat="45.04979" lon="2.81962">
        <ele>1461.34</ele>
        <time>2014-12-30T13:27:34Z</time>
      </trkpt>
      <trkpt lat="45.04979" lon="2.81959">
        <ele>1461.34</ele>
        <time>2014-12-30T13:27:36Z</time>
      </trkpt>
      <trkpt lat="45.04977" lon="2.81939">
        <ele>1461.34</ele>
        <time>2014-12-30T13:27:49Z</time>
      </trkpt>
      <trkpt lat="45.04974" lon="2.81911">
        <ele>1462.78</ele>
        <time>2014-12-30T13:28:08Z</time>
      </trkpt>
      <trkpt lat="45.04972" lon="2.81895">
        <ele>1462.3</ele>
        <time>2014-12-30T13:28:26Z</time>
      </trkpt>
      <trkpt lat="45.04971" lon="2.81874">
        <ele>1464.23</ele>
        <time>2014-12-30T13:28:41Z</time>
      </trkpt>
      <trkpt lat="45.04969" lon="2.81863">
        <ele>1463.74</ele>
        <time>2014-12-30T13:28:48Z</time>
      </trkpt>
      <trkpt lat="45.04968" lon="2.81861">
        <ele>1464.23</ele>
        <time>2014-12-30T13:28:50Z</time>
      </trkpt>
      <trkpt lat="45.04967" lon="2.81829">
        <ele>1466.15</ele>
        <time>2014-12-30T13:29:11Z</time>
      </trkpt>
      <trkpt lat="45.04965" lon="2.81811">
        <ele>1467.11</ele>
        <time>2014-12-30T13:29:24Z</time>
      </trkpt>
      <trkpt lat="45.04963" lon="2.81795">
        <ele>1466.63</ele>
        <time>2014-12-30T13:29:35Z</time>
      </trkpt>
      <trkpt lat="45.04965" lon="2.81792">
        <ele>1466.63</ele>
        <time>2014-12-30T13:29:38Z</time>
      </trkpt>
      <trkpt lat="45.04961" lon="2.81763">
        <ele>1467.11</ele>
        <time>2014-12-30T13:29:58Z</time>
      </trkpt>
      <trkpt lat="45.0496" lon="2.81735">
        <ele>1468.07</ele>
        <time>2014-12-30T13:30:20Z</time>
      </trkpt>
      <trkpt lat="45.0496" lon="2.81733">
        <ele>1468.55</ele>
        <time>2014-12-30T13:30:21Z</time>
      </trkpt>
      <trkpt lat="45.04959" lon="2.81723">
        <ele>1468.07</ele>
        <time>2014-12-30T13:30:29Z</time>
      </trkpt>
      <trkpt lat="45.04959" lon="2.81716">
        <ele>1469.03</ele>
        <time>2014-12-30T13:30:34Z</time>
      </trkpt>
      <trkpt lat="45.04958" lon="2.817">
        <ele>1468.07</ele>
        <time>2014-12-30T13:30:47Z</time>
      </trkpt>
      <trkpt lat="45.04957" lon="2.81688">
        <ele>1469.03</ele>
        <time>2014-12-30T13:30:57Z</time>
      </trkpt>
      <trkpt lat="45.04951" lon="2.8167">
        <ele>1469.51</ele>
        <time>2014-12-30T13:31:15Z</time>
      </trkpt>
      <trkpt lat="45.0495" lon="2.81659">
        <ele>1469.51</ele>
        <time>2014-12-30T13:31:31Z</time>
      </trkpt>
      <trkpt lat="45.0495" lon="2.81655">
        <ele>1469.51</ele>
        <time>2014-12-30T13:31:34Z</time>
      </trkpt>
      <trkpt lat="45.04948" lon="2.81635">
        <ele>1470.47</ele>
        <time>2014-12-30T13:31:52Z</time>
      </trkpt>
      <trkpt lat="45.04948" lon="2.81631">
        <ele>1471.92</ele>
        <time>2014-12-30T13:31:55Z</time>
      </trkpt>
      <trkpt lat="45.04948" lon="2.81627">
        <ele>1472.4</ele>
        <time>2014-12-30T13:31:58Z</time>
      </trkpt>
      <trkpt lat="45.04949" lon="2.81618">
        <ele>1472.4</ele>
        <time>2014-12-30T13:32:04Z</time>
      </trkpt>
      <trkpt lat="45.04948" lon="2.81615">
        <ele>1472.4</ele>
        <time>2014-12-30T13:32:06Z</time>
      </trkpt>
      <trkpt lat="45.04948" lon="2.81586">
        <ele>1473.36</ele>
        <time>2014-12-30T13:32:26Z</time>
      </trkpt>
      <trkpt lat="45.04949" lon="2.81571">
        <ele>1472.88</ele>
        <time>2014-12-30T13:32:38Z</time>
      </trkpt>
      <trkpt lat="45.04955" lon="2.81549">
        <ele>1475.28</ele>
        <time>2014-12-30T13:32:59Z</time>
      </trkpt>
      <trkpt lat="45.04956" lon="2.81535">
        <ele>1477.2</ele>
        <time>2014-12-30T13:33:17Z</time>
      </trkpt>
      <trkpt lat="45.0496" lon="2.8152">
        <ele>1477.68</ele>
        <time>2014-12-30T13:33:29Z</time>
      </trkpt>
      <trkpt lat="45.04961" lon="2.81507">
        <ele>1479.61</ele>
        <time>2014-12-30T13:33:40Z</time>
      </trkpt>
      <trkpt lat="45.04966" lon="2.81486">
        <ele>1479.61</ele>
        <time>2014-12-30T13:33:59Z</time>
      </trkpt>
      <trkpt lat="45.0497" lon="2.81483">
        <ele>1480.09</ele>
        <time>2014-12-30T13:34:04Z</time>
      </trkpt>
      <trkpt lat="45.04973" lon="2.81483">
        <ele>1481.53</ele>
        <time>2014-12-30T13:34:07Z</time>
      </trkpt>
      <trkpt lat="45.04975" lon="2.81481">
        <ele>1481.05</ele>
        <time>2014-12-30T13:34:11Z</time>
      </trkpt>
      <trkpt lat="45.04978" lon="2.81476">
        <ele>1481.53</ele>
        <time>2014-12-30T13:34:16Z</time>
      </trkpt>
      <trkpt lat="45.04978" lon="2.81473">
        <ele>1482.01</ele>
        <time>2014-12-30T13:34:18Z</time>
      </trkpt>
      <trkpt lat="45.04981" lon="2.81458">
        <ele>1481.53</ele>
        <time>2014-12-30T13:34:29Z</time>
      </trkpt>
      <trkpt lat="45.04984" lon="2.8145">
        <ele>1482.49</ele>
        <time>2014-12-30T13:34:36Z</time>
      </trkpt>
      <trkpt lat="45.04986" lon="2.81446">
        <ele>1482.01</ele>
        <time>2014-12-30T13:34:40Z</time>
      </trkpt>
      <trkpt lat="45.04991" lon="2.81429">
        <ele>1482.01</ele>
        <time>2014-12-30T13:35:01Z</time>
      </trkpt>
      <trkpt lat="45.04991" lon="2.8142">
        <ele>1482.01</ele>
        <time>2014-12-30T13:35:28Z</time>
      </trkpt>
      <trkpt lat="45.04992" lon="2.81417">
        <ele>1482.97</ele>
        <time>2014-12-30T13:35:32Z</time>
      </trkpt>
      <trkpt lat="45.04997" lon="2.81412">
        <ele>1483.93</ele>
        <time>2014-12-30T13:35:39Z</time>
      </trkpt>
      <trkpt lat="45.05" lon="2.81391">
        <ele>1483.93</ele>
        <time>2014-12-30T13:35:58Z</time>
      </trkpt>
      <trkpt lat="45.05001" lon="2.81386">
        <ele>1483.93</ele>
        <time>2014-12-30T13:36:02Z</time>
      </trkpt>
      <trkpt lat="45.05" lon="2.8138">
        <ele>1483.45</ele>
        <time>2014-12-30T13:36:07Z</time>
      </trkpt>
      <trkpt lat="45.05" lon="2.81378">
        <ele>1483.93</ele>
        <time>2014-12-30T13:36:09Z</time>
      </trkpt>
      <trkpt lat="45.05001" lon="2.81361">
        <ele>1484.89</ele>
        <time>2014-12-30T13:36:21Z</time>
      </trkpt>
      <trkpt lat="45.04999" lon="2.81335">
        <ele>1484.89</ele>
        <time>2014-12-30T13:36:41Z</time>
      </trkpt>
      <trkpt lat="45.04998" lon="2.81327">
        <ele>1484.41</ele>
        <time>2014-12-30T13:36:47Z</time>
      </trkpt>
      <trkpt lat="45.04998" lon="2.81303">
        <ele>1484.41</ele>
        <time>2014-12-30T13:37:06Z</time>
      </trkpt>
      <trkpt lat="45.04997" lon="2.81299">
        <ele>1484.41</ele>
        <time>2014-12-30T13:37:09Z</time>
      </trkpt>
      <trkpt lat="45.04997" lon="2.81294">
        <ele>1484.41</ele>
        <time>2014-12-30T13:37:12Z</time>
      </trkpt>
      <trkpt lat="45.04996" lon="2.81283">
        <ele>1484.41</ele>
        <time>2014-12-30T13:37:21Z</time>
      </trkpt>
      <trkpt lat="45.04995" lon="2.81263">
        <ele>1485.37</ele>
        <time>2014-12-30T13:37:36Z</time>
      </trkpt>
      <trkpt lat="45.04996" lon="2.81253">
        <ele>1485.85</ele>
        <time>2014-12-30T13:37:43Z</time>
      </trkpt>
      <trkpt lat="45.04996" lon="2.81247">
        <ele>1484.89</ele>
        <time>2014-12-30T13:37:55Z</time>
      </trkpt>
      <trkpt lat="45.04996" lon="2.8124">
        <ele>1485.37</ele>
        <time>2014-12-30T13:38:00Z</time>
      </trkpt>
      <trkpt lat="45.04994" lon="2.81232">
        <ele>1484.89</ele>
        <time>2014-12-30T13:38:06Z</time>
      </trkpt>
      <trkpt lat="45.04994" lon="2.8123">
        <ele>1484.89</ele>
        <time>2014-12-30T13:38:08Z</time>
      </trkpt>
      <trkpt lat="45.04995" lon="2.81211">
        <ele>1484.89</ele>
        <time>2014-12-30T13:38:23Z</time>
      </trkpt>
      <trkpt lat="45.04993" lon="2.81187">
        <ele>1486.34</ele>
        <time>2014-12-30T13:38:42Z</time>
      </trkpt>
      <trkpt lat="45.04994" lon="2.81184">
        <ele>1486.34</ele>
        <time>2014-12-30T13:38:45Z</time>
      </trkpt>
      <trkpt lat="45.04995" lon="2.81176">
        <ele>1486.34</ele>
        <time>2014-12-30T13:38:51Z</time>
      </trkpt>
      <trkpt lat="45.04994" lon="2.81164">
        <ele>1486.34</ele>
        <time>2014-12-30T13:39:01Z</time>
      </trkpt>
      <trkpt lat="45.04992" lon="2.81134">
        <ele>1486.82</ele>
        <time>2014-12-30T13:39:22Z</time>
      </trkpt>
      <trkpt lat="45.04994" lon="2.81108">
        <ele>1487.3</ele>
        <time>2014-12-30T13:39:41Z</time>
      </trkpt>
      <trkpt lat="45.04995" lon="2.81102">
        <ele>1487.3</ele>
        <time>2014-12-30T13:39:45Z</time>
      </trkpt>
      <trkpt lat="45.04991" lon="2.81077">
        <ele>1486.82</ele>
        <time>2014-12-30T13:40:04Z</time>
      </trkpt>
      <trkpt lat="45.0499" lon="2.8107">
        <ele>1487.3</ele>
        <time>2014-12-30T13:40:09Z</time>
      </trkpt>
      <trkpt lat="45.0499" lon="2.81037">
        <ele>1486.34</ele>
        <time>2014-12-30T13:40:31Z</time>
      </trkpt>
      <trkpt lat="45.04989" lon="2.81034">
        <ele>1485.85</ele>
        <time>2014-12-30T13:40:34Z</time>
      </trkpt>
      <trkpt lat="45.04989" lon="2.81005">
        <ele>1485.85</ele>
        <time>2014-12-30T13:40:53Z</time>
      </trkpt>
      <trkpt lat="45.04991" lon="2.80995">
        <ele>1485.85</ele>
        <time>2014-12-30T13:41:01Z</time>
      </trkpt>
      <trkpt lat="45.04989" lon="2.80979">
        <ele>1485.37</ele>
        <time>2014-12-30T13:41:13Z</time>
      </trkpt>
      <trkpt lat="45.0499" lon="2.80955">
        <ele>1485.37</ele>
        <time>2014-12-30T13:41:31Z</time>
      </trkpt>
      <trkpt lat="45.04992" lon="2.80932">
        <ele>1485.37</ele>
        <time>2014-12-30T13:41:51Z</time>
      </trkpt>
      <trkpt lat="45.04997" lon="2.8092">
        <ele>1485.85</ele>
        <time>2014-12-30T13:42:09Z</time>
      </trkpt>
      <trkpt lat="45.04999" lon="2.80915">
        <ele>1485.85</ele>
        <time>2014-12-30T13:42:14Z</time>
      </trkpt>
      <trkpt lat="45.05002" lon="2.80898">
        <ele>1486.34</ele>
        <time>2014-12-30T13:42:32Z</time>
      </trkpt>
      <trkpt lat="45.05004" lon="2.80895">
        <ele>1487.78</ele>
        <time>2014-12-30T13:43:01Z</time>
      </trkpt>
      <trkpt lat="45.0501" lon="2.80875">
        <ele>1488.26</ele>
        <time>2014-12-30T13:43:19Z</time>
      </trkpt>
      <trkpt lat="45.05017" lon="2.80868">
        <ele>1489.7</ele>
        <time>2014-12-30T13:43:43Z</time>
      </trkpt>
      <trkpt lat="45.05017" lon="2.80865">
        <ele>1489.7</ele>
        <time>2014-12-30T13:43:46Z</time>
      </trkpt>
      <trkpt lat="45.05017" lon="2.80838">
        <ele>1489.22</ele>
        <time>2014-12-30T13:44:05Z</time>
      </trkpt>
      <trkpt lat="45.05021" lon="2.80829">
        <ele>1489.7</ele>
        <time>2014-12-30T13:44:13Z</time>
      </trkpt>
      <trkpt lat="45.05024" lon="2.80805">
        <ele>1490.66</ele>
        <time>2014-12-30T13:44:32Z</time>
      </trkpt>
      <trkpt lat="45.05025" lon="2.80803">
        <ele>1490.18</ele>
        <time>2014-12-30T13:44:33Z</time>
      </trkpt>
      <trkpt lat="45.05027" lon="2.80779">
        <ele>1489.7</ele>
        <time>2014-12-30T13:44:51Z</time>
      </trkpt>
      <trkpt lat="45.05029" lon="2.80749">
        <ele>1488.26</ele>
        <time>2014-12-30T13:45:12Z</time>
      </trkpt>
      <trkpt lat="45.05031" lon="2.8073">
        <ele>1485.85</ele>
        <time>2014-12-30T13:45:32Z</time>
      </trkpt>
      <trkpt lat="45.05036" lon="2.80704">
        <ele>1485.37</ele>
        <time>2014-12-30T13:45:54Z</time>
      </trkpt>
      <trkpt lat="45.05039" lon="2.80681">
        <ele>1485.37</ele>
        <time>2014-12-30T13:46:12Z</time>
      </trkpt>
      <trkpt lat="45.05039" lon="2.80676">
        <ele>1485.37</ele>
        <time>2014-12-30T13:46:15Z</time>
      </trkpt>
      <trkpt lat="45.05041" lon="2.8065">
        <ele>1484.41</ele>
        <time>2014-12-30T13:46:35Z</time>
      </trkpt>
      <trkpt lat="45.05042" lon="2.80623">
        <ele>1484.41</ele>
        <time>2014-12-30T13:46:54Z</time>
      </trkpt>
      <trkpt lat="45.05042" lon="2.806">
        <ele>1483.93</ele>
        <time>2014-12-30T13:47:12Z</time>
      </trkpt>
      <trkpt lat="45.05042" lon="2.80587">
        <ele>1483.45</ele>
        <time>2014-12-30T13:47:23Z</time>
      </trkpt>
      <trkpt lat="45.05042" lon="2.80572">
        <ele>1482.49</ele>
        <time>2014-12-30T13:47:35Z</time>
      </trkpt>
      <trkpt lat="45.0504" lon="2.8056">
        <ele>1481.53</ele>
        <time>2014-12-30T13:47:44Z</time>
      </trkpt>
      <trkpt lat="45.05039" lon="2.80557">
        <ele>1481.53</ele>
        <time>2014-12-30T13:47:46Z</time>
      </trkpt>
      <trkpt lat="45.05037" lon="2.80544">
        <ele>1480.09</ele>
        <time>2014-12-30T13:47:56Z</time>
      </trkpt>
      <trkpt lat="45.05036" lon="2.8054">
        <ele>1479.13</ele>
        <time>2014-12-30T13:47:59Z</time>
      </trkpt>
      <trkpt lat="45.05034" lon="2.80532">
        <ele>1478.65</ele>
        <time>2014-12-30T13:48:05Z</time>
      </trkpt>
      <trkpt lat="45.05034" lon="2.80528">
        <ele>1478.16</ele>
        <time>2014-12-30T13:48:08Z</time>
      </trkpt>
      <trkpt lat="45.05032" lon="2.80515">
        <ele>1476.72</ele>
        <time>2014-12-30T13:48:18Z</time>
      </trkpt>
      <trkpt lat="45.05033" lon="2.80511">
        <ele>1476.72</ele>
        <time>2014-12-30T13:48:21Z</time>
      </trkpt>
      <trkpt lat="45.05037" lon="2.80482">
        <ele>1475.28</ele>
        <time>2014-12-30T13:48:40Z</time>
      </trkpt>
      <trkpt lat="45.05039" lon="2.8047">
        <ele>1473.84</ele>
        <time>2014-12-30T13:48:48Z</time>
      </trkpt>
      <trkpt lat="45.0504" lon="2.80467">
        <ele>1473.36</ele>
        <time>2014-12-30T13:48:51Z</time>
      </trkpt>
      <trkpt lat="45.05045" lon="2.80445">
        <ele>1469.99</ele>
        <time>2014-12-30T13:49:10Z</time>
      </trkpt>
      <trkpt lat="45.05055" lon="2.80429">
        <ele>1469.51</ele>
        <time>2014-12-30T13:49:25Z</time>
      </trkpt>
      <trkpt lat="45.05056" lon="2.80425">
        <ele>1469.03</ele>
        <time>2014-12-30T13:49:29Z</time>
      </trkpt>
      <trkpt lat="45.05059" lon="2.80406">
        <ele>1467.11</ele>
        <time>2014-12-30T13:49:47Z</time>
      </trkpt>
      <trkpt lat="45.0507" lon="2.80388">
        <ele>1467.11</ele>
        <time>2014-12-30T13:50:06Z</time>
      </trkpt>
      <trkpt lat="45.05073" lon="2.80374">
        <ele>1466.15</ele>
        <time>2014-12-30T13:50:15Z</time>
      </trkpt>
      <trkpt lat="45.05084" lon="2.80336">
        <ele>1463.74</ele>
        <time>2014-12-30T13:50:39Z</time>
      </trkpt>
      <trkpt lat="45.05088" lon="2.80317">
        <ele>1462.78</ele>
        <time>2014-12-30T13:50:50Z</time>
      </trkpt>
      <trkpt lat="45.05093" lon="2.80298">
        <ele>1462.3</ele>
        <time>2014-12-30T13:51:01Z</time>
      </trkpt>
      <trkpt lat="45.051" lon="2.80262">
        <ele>1459.9</ele>
        <time>2014-12-30T13:51:21Z</time>
      </trkpt>
      <trkpt lat="45.05106" lon="2.80229">
        <ele>1457.98</ele>
        <time>2014-12-30T13:51:42Z</time>
      </trkpt>
      <trkpt lat="45.05108" lon="2.80216">
        <ele>1457.98</ele>
        <time>2014-12-30T13:51:50Z</time>
      </trkpt>
      <trkpt lat="45.05109" lon="2.80213">
        <ele>1457.98</ele>
        <time>2014-12-30T13:51:52Z</time>
      </trkpt>
      <trkpt lat="45.05126" lon="2.8018">
        <ele>1457.5</ele>
        <time>2014-12-30T13:52:17Z</time>
      </trkpt>
      <trkpt lat="45.0514" lon="2.80147">
        <ele>1457.02</ele>
        <time>2014-12-30T13:52:41Z</time>
      </trkpt>
      <trkpt lat="45.05152" lon="2.80112">
        <ele>1456.05</ele>
        <time>2014-12-30T13:53:05Z</time>
      </trkpt>
      <trkpt lat="45.05158" lon="2.80097">
        <ele>1456.53</ele>
        <time>2014-12-30T13:53:16Z</time>
      </trkpt>
      <trkpt lat="45.05165" lon="2.80085">
        <ele>1456.05</ele>
        <time>2014-12-30T13:53:25Z</time>
      </trkpt>
      <trkpt lat="45.05167" lon="2.80079">
        <ele>1455.57</ele>
        <time>2014-12-30T13:53:29Z</time>
      </trkpt>
      <trkpt lat="45.05178" lon="2.80059">
        <ele>1455.09</ele>
        <time>2014-12-30T13:53:44Z</time>
      </trkpt>
      <trkpt lat="45.05181" lon="2.80051">
        <ele>1455.57</ele>
        <time>2014-12-30T13:53:50Z</time>
      </trkpt>
      <trkpt lat="45.05193" lon="2.80023">
        <ele>1456.05</ele>
        <time>2014-12-30T13:54:11Z</time>
      </trkpt>
      <trkpt lat="45.05204" lon="2.80001">
        <ele>1456.53</ele>
        <time>2014-12-30T13:54:29Z</time>
      </trkpt>
      <trkpt lat="45.05216" lon="2.79972">
        <ele>1456.05</ele>
        <time>2014-12-30T13:54:52Z</time>
      </trkpt>
      <trkpt lat="45.05232" lon="2.79949">
        <ele>1453.17</ele>
        <time>2014-12-30T13:55:12Z</time>
      </trkpt>
      <trkpt lat="45.05237" lon="2.79933">
        <ele>1451.25</ele>
        <time>2014-12-30T13:55:22Z</time>
      </trkpt>
      <trkpt lat="45.05255" lon="2.79899">
        <ele>1449.32</ele>
        <time>2014-12-30T13:55:46Z</time>
      </trkpt>
      <trkpt lat="45.05273" lon="2.79888">
        <ele>1446.44</ele>
        <time>2014-12-30T13:56:03Z</time>
      </trkpt>
      <trkpt lat="45.05274" lon="2.79887">
        <ele>1445.96</ele>
        <time>2014-12-30T13:56:04Z</time>
      </trkpt>
      <trkpt lat="45.05285" lon="2.7988">
        <ele>1443.08</ele>
        <time>2014-12-30T13:56:14Z</time>
      </trkpt>
      <trkpt lat="45.05286" lon="2.7988">
        <ele>1443.08</ele>
        <time>2014-12-30T13:56:15Z</time>
      </trkpt>
      <trkpt lat="45.05313" lon="2.79896">
        <ele>1439.71</ele>
        <time>2014-12-30T13:56:38Z</time>
      </trkpt>
      <trkpt lat="45.05317" lon="2.79898">
        <ele>1438.75</ele>
        <time>2014-12-30T13:56:42Z</time>
      </trkpt>
      <trkpt lat="45.05325" lon="2.79901">
        <ele>1438.27</ele>
        <time>2014-12-30T13:56:50Z</time>
      </trkpt>
      <trkpt lat="45.05345" lon="2.7991">
        <ele>1435.39</ele>
        <time>2014-12-30T13:57:09Z</time>
      </trkpt>
      <trkpt lat="45.05364" lon="2.7991">
        <ele>1435.87</ele>
        <time>2014-12-30T13:57:26Z</time>
      </trkpt>
      <trkpt lat="45.05365" lon="2.79908">
        <ele>1435.39</ele>
        <time>2014-12-30T13:57:27Z</time>
      </trkpt>
      <trkpt lat="45.05374" lon="2.79898">
        <ele>1433.94</ele>
        <time>2014-12-30T13:57:36Z</time>
      </trkpt>
      <trkpt lat="45.05379" lon="2.79889">
        <ele>1432.02</ele>
        <time>2014-12-30T13:57:42Z</time>
      </trkpt>
      <trkpt lat="45.05394" lon="2.79856">
        <ele>1428.66</ele>
        <time>2014-12-30T13:58:05Z</time>
      </trkpt>
      <trkpt lat="45.05401" lon="2.79844">
        <ele>1428.18</ele>
        <time>2014-12-30T13:58:14Z</time>
      </trkpt>
      <trkpt lat="45.05415" lon="2.79813">
        <ele>1425.29</ele>
        <time>2014-12-30T13:58:35Z</time>
      </trkpt>
      <trkpt lat="45.05408" lon="2.79791">
        <ele>1424.33</ele>
        <time>2014-12-30T13:58:53Z</time>
      </trkpt>
      <trkpt lat="45.05408" lon="2.79788">
        <ele>1424.81</ele>
        <time>2014-12-30T13:58:57Z</time>
      </trkpt>
      <trkpt lat="45.05407" lon="2.79781">
        <ele>1424.81</ele>
        <time>2014-12-30T13:59:01Z</time>
      </trkpt>
      <trkpt lat="45.05393" lon="2.7975">
        <ele>1424.33</ele>
        <time>2014-12-30T13:59:23Z</time>
      </trkpt>
      <trkpt lat="45.05389" lon="2.79749">
        <ele>1424.33</ele>
        <time>2014-12-30T13:59:26Z</time>
      </trkpt>
      <trkpt lat="45.05383" lon="2.7975">
        <ele>1423.37</ele>
        <time>2014-12-30T13:59:31Z</time>
      </trkpt>
      <trkpt lat="45.0536" lon="2.79757">
        <ele>1420.97</ele>
        <time>2014-12-30T13:59:53Z</time>
      </trkpt>
      <trkpt lat="45.05352" lon="2.79758">
        <ele>1419.52</ele>
        <time>2014-12-30T14:00:00Z</time>
      </trkpt>
      <trkpt lat="45.05328" lon="2.79758">
        <ele>1417.12</ele>
        <time>2014-12-30T14:00:20Z</time>
      </trkpt>
      <trkpt lat="45.05325" lon="2.79759">
        <ele>1417.12</ele>
        <time>2014-12-30T14:00:23Z</time>
      </trkpt>
      <trkpt lat="45.05298" lon="2.79757">
        <ele>1415.2</ele>
        <time>2014-12-30T14:00:43Z</time>
      </trkpt>
      <trkpt lat="45.05287" lon="2.79752">
        <ele>1414.24</ele>
        <time>2014-12-30T14:00:54Z</time>
      </trkpt>
      <trkpt lat="45.05281" lon="2.79746">
        <ele>1413.76</ele>
        <time>2014-12-30T14:01:01Z</time>
      </trkpt>
      <trkpt lat="45.05279" lon="2.79744">
        <ele>1413.28</ele>
        <time>2014-12-30T14:01:03Z</time>
      </trkpt>
      <trkpt lat="45.05274" lon="2.79735">
        <ele>1411.83</ele>
        <time>2014-12-30T14:01:11Z</time>
      </trkpt>
      <trkpt lat="45.05256" lon="2.79716">
        <ele>1408.95</ele>
        <time>2014-12-30T14:01:30Z</time>
      </trkpt>
      <trkpt lat="45.0524" lon="2.797">
        <ele>1407.03</ele>
        <time>2014-12-30T14:01:48Z</time>
      </trkpt>
      <trkpt lat="45.05239" lon="2.79698">
        <ele>1407.03</ele>
        <time>2014-12-30T14:01:50Z</time>
      </trkpt>
      <trkpt lat="45.05239" lon="2.7969">
        <ele>1406.07</ele>
        <time>2014-12-30T14:01:56Z</time>
      </trkpt>
      <trkpt lat="45.05244" lon="2.79668">
        <ele>1402.7</ele>
        <time>2014-12-30T14:02:10Z</time>
      </trkpt>
      <trkpt lat="45.05258" lon="2.79645">
        <ele>1399.82</ele>
        <time>2014-12-30T14:02:28Z</time>
      </trkpt>
      <trkpt lat="45.05265" lon="2.7964">
        <ele>1399.34</ele>
        <time>2014-12-30T14:02:34Z</time>
      </trkpt>
      <trkpt lat="45.05288" lon="2.7961">
        <ele>1396.45</ele>
        <time>2014-12-30T14:02:58Z</time>
      </trkpt>
      <trkpt lat="45.053" lon="2.79585">
        <ele>1395.49</ele>
        <time>2014-12-30T14:03:14Z</time>
      </trkpt>
      <trkpt lat="45.05302" lon="2.79552">
        <ele>1393.57</ele>
        <time>2014-12-30T14:03:35Z</time>
      </trkpt>
      <trkpt lat="45.05299" lon="2.79513">
        <ele>1392.61</ele>
        <time>2014-12-30T14:03:58Z</time>
      </trkpt>
      <trkpt lat="45.05295" lon="2.79479">
        <ele>1392.13</ele>
        <time>2014-12-30T14:04:20Z</time>
      </trkpt>
      <trkpt lat="45.05284" lon="2.79451">
        <ele>1392.13</ele>
        <time>2014-12-30T14:04:42Z</time>
      </trkpt>
      <trkpt lat="45.05275" lon="2.79412">
        <ele>1390.68</ele>
        <time>2014-12-30T14:05:08Z</time>
      </trkpt>
      <trkpt lat="45.05264" lon="2.79389">
        <ele>1390.68</ele>
        <time>2014-12-30T14:05:29Z</time>
      </trkpt>
      <trkpt lat="45.05265" lon="2.79384">
        <ele>1391.17</ele>
        <time>2014-12-30T14:05:34Z</time>
      </trkpt>
      <trkpt lat="45.05275" lon="2.79367">
        <ele>1389.24</ele>
        <time>2014-12-30T14:05:57Z</time>
      </trkpt>
      <trkpt lat="45.05275" lon="2.79366">
        <ele>1389.24</ele>
        <time>2014-12-30T14:05:58Z</time>
      </trkpt>
      <trkpt lat="45.0527" lon="2.79355">
        <ele>1388.28</ele>
        <time>2014-12-30T14:06:09Z</time>
      </trkpt>
      <trkpt lat="45.05263" lon="2.79357">
        <ele>1389.24</ele>
        <time>2014-12-30T14:06:18Z</time>
      </trkpt>
      <trkpt lat="45.0526" lon="2.79358">
        <ele>1389.72</ele>
        <time>2014-12-30T14:06:21Z</time>
      </trkpt>
      <trkpt lat="45.05256" lon="2.79353">
        <ele>1389.72</ele>
        <time>2014-12-30T14:06:27Z</time>
      </trkpt>
      <trkpt lat="45.0525" lon="2.79354">
        <ele>1390.2</ele>
        <time>2014-12-30T14:06:34Z</time>
      </trkpt>
      <trkpt lat="45.05239" lon="2.79359">
        <ele>1390.2</ele>
        <time>2014-12-30T14:06:46Z</time>
      </trkpt>
      <trkpt lat="45.0523" lon="2.79369">
        <ele>1391.17</ele>
        <time>2014-12-30T14:07:07Z</time>
      </trkpt>
      <trkpt lat="45.05229" lon="2.79369">
        <ele>1391.17</ele>
        <time>2014-12-30T14:07:29Z</time>
      </trkpt>
      <trkpt lat="45.0523" lon="2.7937">
        <ele>1390.68</ele>
        <time>2014-12-30T14:07:50Z</time>
      </trkpt>
      <trkpt lat="45.05229" lon="2.79369">
        <ele>1385.88</ele>
        <time>2014-12-30T14:07:53Z</time>
      </trkpt>
      <trkpt lat="45.05229" lon="2.79369">
        <ele>1391.65</ele>
        <time>2014-12-30T14:07:54Z</time>
      </trkpt>
      <trkpt lat="45.05229" lon="2.79369">
        <ele>1388.28</ele>
        <time>2014-12-30T14:07:55Z</time>
      </trkpt>
      <trkpt lat="45.0523" lon="2.79369">
        <ele>1391.65</ele>
        <time>2014-12-30T14:07:57Z</time>
      </trkpt>
    </trkseg>
  </trk>
</gpx>